
Distance (Route):
Temperature : -13.7°C
Humidity : 3.7%
Pressure : 0hPa| Receiver | Frames | First received | Last received |
|---|---|---|---|
| DL9RDZ-1 | 661 | 2026-09-05 23:03:36 | 2026-09-06 01:09:18 |
| Receiver | Date | Latitude | Longitude | Direction | Speed | Altitude | Climb | Temperature | Humidity | Pressure | Voltage | Killtimer | Uptime | BKT | XDATA |
|---|---|---|---|---|---|---|---|---|---|---|---|---|---|---|---|
| DL9RDZ-1 | 2026-09-06 01:09:18 | 64.37676 | -21.10493 | 349° | 13km/h | 4366m | -11.3m/s | -13.7°C | 3.7% | 0hPa | 0V | 08:06:00 | 00:00:00 | 00:00:00 | |
| DL9RDZ-1 | 2026-09-06 01:09:07 | 64.37641 | -21.10490 | 359° | 13km/h | 4486m | -8.1m/s | -14.4°C | 5.1% | 0hPa | 0V | 00:00:00 | 00:00:00 | 00:00:00 | |
| DL9RDZ-1 | 2026-09-06 01:08:57 | 64.37605 | -21.10494 | 5° | 16km/h | 4590m | -11.4m/s | -15.2°C | 6.4% | 0hPa | 0V | 00:00:00 | 00:00:00 | 00:00:00 | |
| DL9RDZ-1 | 2026-09-06 01:08:45 | 64.37563 | -21.10504 | 6° | 16km/h | 4724m | -11.2m/s | -16.3°C | 7.5% | 0hPa | 0V | 00:00:00 | 00:00:00 | 00:00:00 | |
| DL9RDZ-1 | 2026-09-06 01:08:34 | 64.37520 | -21.10525 | 21° | 16km/h | 4850m | -10.3m/s | -16.8°C | 5.8% | 0hPa | 0V | 00:00:00 | 00:00:00 | 00:00:00 | |
| DL9RDZ-1 | 2026-09-06 01:08:23 | 64.37475 | -21.10553 | 17° | 15km/h | 4970m | -12.3m/s | -17.7°C | 5.9% | 0hPa | 0V | 00:00:00 | 00:00:00 | 00:00:00 | |
| DL9RDZ-1 | 2026-09-06 01:06:08 | 64.36881 | -21.11671 | 60° | 38km/h | 6504m | -12.1m/s | -29.0°C | 16.1% | 0hPa | 0V | 00:00:00 | 00:00:00 | 00:00:00 | |
| DL9RDZ-1 | 2026-09-06 01:05:52 | 64.36778 | -21.12021 | 54° | 51km/h | 6690m | -11.3m/s | -29.3°C | 11.9% | 0hPa | 0V | 00:00:00 | 00:00:00 | 00:00:00 | |
| DL9RDZ-1 | 2026-09-06 01:05:42 | 64.36700 | -21.12256 | 52° | 53km/h | 6813m | -10.6m/s | -29.8°C | 10.4% | 0hPa | 0V | 08:10:00 | 00:00:00 | 00:00:00 | |
| DL9RDZ-1 | 2026-09-06 01:05:31 | 64.36605 | -21.12513 | 48° | 55km/h | 6941m | -12.6m/s | -30.5°C | 9.8% | 0hPa | 0V | 08:10:00 | 00:00:00 | 00:00:00 | |
| DL9RDZ-1 | 2026-09-06 01:05:20 | 64.36506 | -21.12751 | 50° | 51km/h | 7072m | -11.0m/s | -31.4°C | 10.5% | 0hPa | 0V | 08:10:00 | 00:00:00 | 00:00:00 | |
| DL9RDZ-1 | 2026-09-06 01:05:09 | 64.36425 | -21.13006 | 58° | 51km/h | 7199m | -11.1m/s | -32.2°C | 12.6% | 0hPa | 0V | 08:10:00 | 00:00:00 | 00:00:00 | |
| DL9RDZ-1 | 2026-09-06 01:04:58 | 64.36348 | -21.13293 | 59° | 55km/h | 7329m | -11.9m/s | -33.0°C | 16.0% | 0hPa | 0V | 08:10:00 | 00:00:00 | 00:00:00 | |
| DL9RDZ-1 | 2026-09-06 01:04:48 | 64.36266 | -21.13578 | 56° | 62km/h | 7446m | -12.8m/s | -33.7°C | 21.9% | 0hPa | 0V | 08:11:00 | 00:00:00 | 00:00:00 | |
| DL9RDZ-1 | 2026-09-06 01:04:37 | 64.36163 | -21.13917 | 58° | 66km/h | 7577m | -13.6m/s | -34.3°C | 49.8% | 0hPa | 0V | 08:11:00 | 00:00:00 | 00:00:00 | |
| DL9RDZ-1 | 2026-09-06 01:04:16 | 64.35960 | -21.14645 | 58° | 75km/h | 7833m | -13.5m/s | -36.0°C | 59.3% | 0hPa | 0V | 08:11:00 | 00:00:00 | 00:00:00 | |
| DL9RDZ-1 | 2026-09-06 01:03:55 | 64.35743 | -21.15445 | 60° | 78km/h | 8092m | -12.7m/s | -37.9°C | 72.3% | 0hPa | 0V | 08:12:00 | 00:00:00 | 00:00:00 | |
| DL9RDZ-1 | 2026-09-06 01:03:44 | 64.35625 | -21.15871 | 58° | 80km/h | 8232m | -13.6m/s | -38.9°C | 70.5% | 0hPa | 0V | 08:12:00 | 00:00:00 | 00:00:00 | |
| DL9RDZ-1 | 2026-09-06 01:03:34 | 64.35512 | -21.16267 | 57° | 82km/h | 8359m | -13.0m/s | -40.0°C | 66.1% | 0hPa | 0V | 08:12:00 | 00:00:00 | 00:00:00 | |
| DL9RDZ-1 | 2026-09-06 01:03:23 | 64.35385 | -21.16715 | 58° | 84km/h | 8501m | -13.6m/s | -41.1°C | 65.0% | 0hPa | 0V | 08:12:00 | 00:00:00 | 00:00:00 | |
| DL9RDZ-1 | 2026-09-06 01:03:12 | 64.35258 | -21.17177 | 59° | 88km/h | 8644m | -14.0m/s | -42.2°C | 64.1% | 0hPa | 0V | 08:12:00 | 00:00:00 | 00:00:00 | |
| DL9RDZ-1 | 2026-09-06 01:03:02 | 64.35138 | -21.17607 | 58° | 88km/h | 8777m | -14.4m/s | -43.4°C | 65.1% | 0hPa | 0V | 08:12:00 | 00:00:00 | 00:00:00 | |
| DL9RDZ-1 | 2026-09-06 01:02:52 | 64.35016 | -21.18038 | 58° | 89km/h | 8911m | -12.2m/s | -44.5°C | 62.7% | 0hPa | 0V | 08:12:00 | 00:00:00 | 00:00:00 | |
| DL9RDZ-1 | 2026-09-06 01:02:41 | 64.34880 | -21.18515 | 58° | 89km/h | 9063m | -15.0m/s | -45.8°C | 62.5% | 0hPa | 0V | 08:12:00 | 00:00:00 | 00:00:00 | |
| DL9RDZ-1 | 2026-09-06 01:02:30 | 64.34737 | -21.18995 | 57° | 95km/h | 9204m | -14.2m/s | -47.0°C | 65.7% | 0hPa | 0V | 08:12:00 | 00:00:00 | 00:00:00 | |
| DL9RDZ-1 | 2026-09-06 01:02:20 | 64.34596 | -21.19474 | 58° | 102km/h | 9334m | -13.1m/s | -47.6°C | 70.6% | 0hPa | 0V | 08:13:00 | 00:00:00 | 00:00:00 | |
| DL9RDZ-1 | 2026-09-06 01:02:10 | 64.34447 | -21.19985 | 58° | 110km/h | 9465m | -15.2m/s | -48.2°C | 70.0% | 0hPa | 0V | 08:13:00 | 00:00:00 | 00:00:00 | |
| DL9RDZ-1 | 2026-09-06 01:02:00 | 64.34292 | -21.20518 | 58° | 113km/h | 9605m | -15.7m/s | -49.0°C | 67.0% | 0hPa | 0V | 08:13:00 | 00:00:00 | 00:00:00 | |
| DL9RDZ-1 | 2026-09-06 01:01:49 | 64.34127 | -21.21115 | 59° | 108km/h | 9764m | -14.5m/s | -49.9°C | 50.4% | 0hPa | 0V | 08:13:00 | 00:00:00 | 00:00:00 | |
| DL9RDZ-1 | 2026-09-06 01:01:38 | 64.33969 | -21.21707 | 60° | 108km/h | 9915m | -15.1m/s | -50.5°C | 46.0% | 0hPa | 0V | 08:13:00 | 00:00:00 | 00:00:00 | |
| DL9RDZ-1 | 2026-09-06 01:01:28 | 64.33829 | -21.22252 | 60° | 110km/h | 10056m | -14.8m/s | -51.3°C | 50.1% | 0hPa | 0V | 08:14:00 | 00:00:00 | 00:00:00 | |
| DL9RDZ-1 | 2026-09-06 01:01:18 | 64.33687 | -21.22794 | 59° | 108km/h | 10202m | -15.2m/s | -51.9°C | 36.9% | 0hPa | 0V | 08:14:00 | 00:00:00 | 00:00:00 | |
| DL9RDZ-1 | 2026-09-06 01:01:07 | 64.33520 | -21.23373 | 56° | 110km/h | 10360m | -13.7m/s | -52.5°C | 30.4% | 0hPa | 0V | 08:14:00 | 00:00:00 | 00:00:00 | |
| DL9RDZ-1 | 2026-09-06 01:00:57 | 64.33360 | -21.23880 | 55° | 106km/h | 10494m | -14.3m/s | -53.1°C | 25.5% | 0hPa | 0V | 08:14:00 | 00:00:00 | 00:00:00 | |
| DL9RDZ-1 | 2026-09-06 01:00:46 | 64.33190 | -21.24430 | 56° | 102km/h | 10650m | -16.3m/s | -54.3°C | 21.2% | 0hPa | 0V | 08:14:00 | 00:00:00 | 00:00:00 | |
| DL9RDZ-1 | 2026-09-06 01:00:36 | 64.33034 | -21.24899 | 51° | 99km/h | 10798m | -13.8m/s | -54.6°C | 18.6% | 0hPa | 0V | 08:15:00 | 00:00:00 | 00:00:00 | |
| DL9RDZ-1 | 2026-09-06 01:00:25 | 64.32859 | -21.25378 | 51° | 97km/h | 10954m | -14.4m/s | -54.3°C | 15.1% | 0hPa | 0V | 08:15:00 | 00:00:00 | 00:00:00 | |
| DL9RDZ-1 | 2026-09-06 01:00:15 | 64.32705 | -21.25820 | 54° | 97km/h | 11097m | -13.7m/s | -53.9°C | 11.3% | 0hPa | 0V | 08:15:00 | 00:00:00 | 00:00:00 | |
| DL9RDZ-1 | 2026-09-06 01:00:04 | 64.32547 | -21.26312 | 57° | 93km/h | 11246m | -15.1m/s | -52.6°C | 7.4% | 0hPa | 0V | 08:15:00 | 00:00:00 | 00:00:00 | |
| DL9RDZ-1 | 2026-09-06 00:59:53 | 64.32424 | -21.26792 | 63° | 80km/h | 11395m | -14.6m/s | -51.5°C | 5.2% | 0hPa | 0V | 08:15:00 | 00:00:00 | 00:00:00 | |
| DL9RDZ-1 | 2026-09-06 00:59:43 | 64.32328 | -21.27173 | 59° | 73km/h | 11546m | -16.3m/s | -51.8°C | 3.6% | 0hPa | 0V | 08:16:00 | 00:00:00 | 00:00:00 | |
| DL9RDZ-1 | 2026-09-06 00:59:32 | 64.32221 | -21.27577 | 63° | 71km/h | 11714m | -16.9m/s | -50.2°C | 2.2% | 0hPa | 0V | 08:16:00 | 00:00:00 | 00:00:00 | |
| DL9RDZ-1 | 2026-09-06 00:59:22 | 64.32150 | -21.27949 | 70° | 68km/h | 11857m | -14.5m/s | -49.2°C | 2.1% | 0hPa | 0V | 08:16:00 | 00:00:00 | 00:00:00 | |
| DL9RDZ-1 | 2026-09-06 00:59:11 | 64.32095 | -21.28335 | 73° | 60km/h | 12013m | -14.4m/s | -49.6°C | 1.8% | 0hPa | 0V | 08:16:00 | 00:00:00 | 00:00:00 | |
| DL9RDZ-1 | 2026-09-06 00:59:01 | 64.32053 | -21.28618 | 73° | 46km/h | 12155m | -13.9m/s | -49.3°C | 1.6% | 0hPa | 0V | 08:16:00 | 00:00:00 | 00:00:00 | |
| DL9RDZ-1 | 2026-09-06 00:58:50 | 64.32006 | -21.28877 | 60° | 46km/h | 12315m | -14.5m/s | -49.8°C | 1.6% | 0hPa | 0V | 08:17:00 | 00:00:00 | 00:00:00 | |
| DL9RDZ-1 | 2026-09-06 00:58:40 | 64.31938 | -21.29108 | 55° | 51km/h | 12468m | -14.9m/s | -50.0°C | 1.6% | 0hPa | 0V | 08:17:00 | 00:00:00 | 00:00:00 | |
| DL9RDZ-1 | 2026-09-06 00:58:29 | 64.31858 | -21.29393 | 60° | 51km/h | 12635m | -15.2m/s | -49.5°C | 1.5% | 0hPa | 0V | 08:17:00 | 00:00:00 | 00:00:00 | |
| DL9RDZ-1 | 2026-09-06 00:58:19 | 64.31792 | -21.29658 | 62° | 53km/h | 12786m | -15.2m/s | -49.9°C | 1.4% | 0hPa | 0V | 08:17:00 | 00:00:00 | 00:00:00 | |
| DL9RDZ-1 | 2026-09-06 00:58:08 | 64.31722 | -21.29935 | 64° | 47km/h | 12950m | -15.0m/s | -49.9°C | 1.5% | 0hPa | 0V | 08:17:00 | 00:00:00 | 00:00:00 | |
| DL9RDZ-1 | 2026-09-06 00:57:57 | 64.31672 | -21.30198 | 70° | 40km/h | 13122m | -14.6m/s | -49.9°C | 1.5% | 0hPa | 0V | 08:17:00 | 00:00:00 | 00:00:00 | |
| DL9RDZ-1 | 2026-09-06 00:57:46 | 64.31623 | -21.30432 | 61° | 42km/h | 13285m | -13.4m/s | -48.6°C | 1.3% | 0hPa | 0V | 08:17:00 | 00:00:00 | 00:00:00 | |
| DL9RDZ-1 | 2026-09-06 00:57:36 | 64.31569 | -21.30636 | 58° | 44km/h | 13445m | -14.9m/s | -48.0°C | 1.3% | 0hPa | 0V | 08:17:00 | 00:00:00 | 00:00:00 | |
| DL9RDZ-1 | 2026-09-06 00:57:26 | 64.31504 | -21.30847 | 52° | 49km/h | 13600m | -17.2m/s | -48.0°C | 1.2% | 0hPa | 0V | 08:17:00 | 00:00:00 | 00:00:00 | |
| DL9RDZ-1 | 2026-09-06 00:57:15 | 64.31430 | -21.31085 | 58° | 44km/h | 13768m | -16.8m/s | -48.0°C | 1.2% | 0hPa | 0V | 08:17:00 | 00:00:00 | 00:00:00 | |
| DL9RDZ-1 | 2026-09-06 00:57:04 | 64.31351 | -21.31321 | 53° | 49km/h | 13937m | -15.2m/s | -48.4°C | 1.2% | 0hPa | 0V | 08:18:00 | 00:00:00 | 00:00:00 | |
| DL9RDZ-1 | 2026-09-06 00:56:54 | 64.31281 | -21.31561 | 64° | 47km/h | 14090m | -17.6m/s | -48.2°C | 1.2% | 0hPa | 0V | 08:18:00 | 00:00:00 | 00:00:00 | |
| DL9RDZ-1 | 2026-09-06 00:56:44 | 64.31236 | -21.31790 | 67° | 40km/h | 14258m | -16.3m/s | -49.1°C | 1.2% | 0hPa | 0V | 08:18:00 | 00:00:00 | 00:00:00 | |
| DL9RDZ-1 | 2026-09-06 00:56:34 | 64.31197 | -21.31997 | 66° | 38km/h | 14415m | -16.6m/s | -49.1°C | 1.2% | 0hPa | 0V | 08:18:00 | 00:00:00 | 00:00:00 | |
| DL9RDZ-1 | 2026-09-06 00:56:23 | 64.31170 | -21.32215 | 77° | 35km/h | 14579m | -16.0m/s | -49.1°C | 1.2% | 0hPa | 0V | 08:19:00 | 00:00:00 | 00:00:00 | |
| DL9RDZ-1 | 2026-09-06 00:56:13 | 64.31140 | -21.32395 | 63° | 33km/h | 14738m | -17.1m/s | -50.2°C | 1.3% | 0hPa | 0V | 08:19:00 | 00:00:00 | 00:00:00 | |
| DL9RDZ-1 | 2026-09-06 00:56:02 | 64.31081 | -21.32577 | 52° | 42km/h | 14916m | -17.0m/s | -50.6°C | 1.3% | 0hPa | 0V | 08:19:00 | 00:00:00 | 00:00:00 | |
| DL9RDZ-1 | 2026-09-06 00:55:52 | 64.31013 | -21.32793 | 65° | 46km/h | 15075m | -18.7m/s | -49.3°C | 1.2% | 0hPa | 0V | 08:19:00 | 00:00:00 | 00:00:00 | |
| DL9RDZ-1 | 2026-09-06 00:55:41 | 64.30972 | -21.33023 | 68° | 38km/h | 15255m | -16.4m/s | -49.9°C | 1.3% | 0hPa | 0V | 08:19:00 | 00:00:00 | 00:00:00 | |
| DL9RDZ-1 | 2026-09-06 00:55:31 | 64.30937 | -21.33232 | 72° | 38km/h | 15425m | -17.2m/s | -48.7°C | 1.1% | 0hPa | 0V | 08:20:00 | 00:00:00 | 00:00:00 | |
| DL9RDZ-1 | 2026-09-06 00:55:21 | 64.30907 | -21.33392 | 54° | 27km/h | 15601m | -16.7m/s | -49.3°C | 1.2% | 0hPa | 0V | 08:20:00 | 00:00:00 | 00:00:00 | |
| DL9RDZ-1 | 2026-09-06 00:55:10 | 64.30850 | -21.33540 | 49° | 38km/h | 15783m | -16.2m/s | -48.5°C | 1.1% | 0hPa | 0V | 08:20:00 | 00:00:00 | 00:00:00 | |
| DL9RDZ-1 | 2026-09-06 00:55:00 | 64.30791 | -21.33719 | 58° | 37km/h | 15950m | -15.1m/s | -48.8°C | 1.1% | 0hPa | 0V | 08:20:00 | 00:00:00 | 00:00:00 | |
| DL9RDZ-1 | 2026-09-06 00:54:50 | 64.30746 | -21.33892 | 63° | 33km/h | 16114m | -17.3m/s | -49.0°C | 1.1% | 0hPa | 0V | 08:20:00 | 00:00:00 | 00:00:00 | |
| DL9RDZ-1 | 2026-09-06 00:54:39 | 64.30719 | -21.34048 | 72° | 27km/h | 16311m | -19.1m/s | -48.5°C | 1.0% | 0hPa | 0V | 08:21:00 | 00:00:00 | 00:00:00 | |
| DL9RDZ-1 | 2026-09-06 00:54:30 | 64.30692 | -21.34201 | 68° | 26km/h | 16472m | -16.2m/s | -48.6°C | 1.1% | 0hPa | 0V | 08:21:00 | 00:00:00 | 00:00:00 | |
| DL9RDZ-1 | 2026-09-06 00:54:19 | 64.30669 | -21.34296 | 56° | 18km/h | 16642m | -16.4m/s | -48.9°C | 1.1% | 0hPa | 0V | 08:21:00 | 00:00:00 | 00:00:00 | |
| DL9RDZ-1 | 2026-09-06 00:54:09 | 64.30634 | -21.34430 | 63° | 35km/h | 16817m | -17.1m/s | -49.1°C | 1.1% | 0hPa | 0V | 08:21:00 | 00:00:00 | 00:00:00 | |
| DL9RDZ-1 | 2026-09-06 00:53:59 | 64.30592 | -21.34629 | 61° | 40km/h | 16984m | -16.9m/s | -49.0°C | 1.1% | 0hPa | 0V | 08:21:00 | 00:00:00 | 00:00:00 | |
| DL9RDZ-1 | 2026-09-06 00:53:48 | 64.30539 | -21.34877 | 73° | 40km/h | 17179m | -15.7m/s | -49.0°C | 1.1% | 0hPa | 0V | 08:22:00 | 00:00:00 | 00:00:00 | |
| DL9RDZ-1 | 2026-09-06 00:53:38 | 64.30507 | -21.35084 | 63° | 37km/h | 17348m | -17.8m/s | -48.9°C | 1.1% | 0hPa | 0V | 08:22:00 | 00:00:00 | 00:00:00 | |
| DL9RDZ-1 | 2026-09-06 00:53:27 | 64.30458 | -21.35283 | 72° | 33km/h | 17548m | -19.8m/s | -49.1°C | 1.0% | 0hPa | 0V | 08:22:00 | 00:00:00 | 00:00:00 | |
| DL9RDZ-1 | 2026-09-06 00:53:16 | 64.30443 | -21.35490 | 81° | 29km/h | 17735m | -17.8m/s | -49.9°C | 1.1% | 0hPa | 0V | 08:22:00 | 00:00:00 | 00:00:00 | |
| DL9RDZ-1 | 2026-09-06 00:53:06 | 64.30417 | -21.35631 | 55° | 29km/h | 17916m | -18.5m/s | -50.7°C | 1.2% | 0hPa | 0V | 08:22:00 | 00:00:00 | 00:00:00 | |
| DL9RDZ-1 | 2026-09-06 00:52:55 | 64.30376 | -21.35832 | 74° | 37km/h | 18124m | -18.6m/s | -50.1°C | 1.1% | 0hPa | 0V | 08:23:00 | 00:00:00 | 00:00:00 | |
| DL9RDZ-1 | 2026-09-06 00:52:44 | 64.30353 | -21.36032 | 74° | 31km/h | 18341m | -18.3m/s | -50.1°C | 1.1% | 0hPa | 0V | 08:23:00 | 00:00:00 | 00:00:00 | |
| DL9RDZ-1 | 2026-09-06 00:52:33 | 64.30327 | -21.36198 | 59° | 27km/h | 18561m | -17.7m/s | -50.1°C | 1.1% | 0hPa | 0V | 08:23:00 | 00:00:00 | 00:00:00 | |
| DL9RDZ-1 | 2026-09-06 00:52:23 | 64.30295 | -21.36353 | 75° | 29km/h | 18762m | -18.1m/s | -50.8°C | 1.2% | 0hPa | 0V | 08:23:00 | 00:00:00 | 00:00:00 | |
| DL9RDZ-1 | 2026-09-06 00:52:12 | 64.30256 | -21.36507 | 53° | 33km/h | 18941m | -20.8m/s | -50.3°C | 1.1% | 0hPa | 0V | 08:23:00 | 00:00:00 | 00:00:00 | |
| DL9RDZ-1 | 2026-09-06 00:51:50 | 64.30225 | -21.36853 | 83° | 22km/h | 19352m | -19.2m/s | -50.0°C | 1.1% | 0hPa | 0V | 08:23:00 | 00:00:00 | 00:00:00 | |
| DL9RDZ-1 | 2026-09-06 00:51:39 | 64.30191 | -21.37006 | 51° | 35km/h | 19546m | -20.4m/s | -50.0°C | 1.1% | 0hPa | 0V | 08:23:00 | 00:00:00 | 00:00:00 | |
| DL9RDZ-1 | 2026-09-06 00:51:28 | 64.30129 | -21.37197 | 59° | 38km/h | 19754m | -18.0m/s | -50.0°C | 1.1% | 0hPa | 0V | 08:23:00 | 00:00:00 | 00:00:00 | |
| DL9RDZ-1 | 2026-09-06 00:51:17 | 64.30083 | -21.37434 | 75° | 38km/h | 19980m | -23.0m/s | -50.1°C | 1.0% | 0hPa | 0V | 08:24:00 | 00:00:00 | 00:00:00 | |
| DL9RDZ-1 | 2026-09-06 00:51:06 | 64.30056 | -21.37641 | 69° | 35km/h | 20182m | -17.3m/s | -50.4°C | 1.1% | 0hPa | 0V | 08:24:00 | 00:00:00 | 00:00:00 | |
| DL9RDZ-1 | 2026-09-06 00:50:55 | 64.30026 | -21.37860 | 84° | 35km/h | 20398m | -22.2m/s | -50.6°C | 1.1% | 0hPa | 0V | 08:24:00 | 00:00:00 | 00:00:00 | |
| DL9RDZ-1 | 2026-09-06 00:50:44 | 64.30009 | -21.38065 | 78° | 31km/h | 20626m | -19.2m/s | -50.4°C | 1.0% | 0hPa | 0V | 08:24:00 | 00:00:00 | 00:00:00 | |
| DL9RDZ-1 | 2026-09-06 00:50:34 | 64.29987 | -21.38220 | 69° | 31km/h | 20826m | -18.6m/s | -50.6°C | 1.1% | 0hPa | 0V | 08:24:00 | 00:00:00 | 00:00:00 | |
| DL9RDZ-1 | 2026-09-06 00:50:23 | 64.29959 | -21.38413 | 72° | 33km/h | 21051m | -21.6m/s | -50.6°C | 1.1% | 0hPa | 0V | 08:25:00 | 00:00:00 | 00:00:00 | |
| DL9RDZ-1 | 2026-09-06 00:50:13 | 64.29945 | -21.38580 | 85° | 26km/h | 21256m | -21.8m/s | -50.3°C | 1.0% | 0hPa | 0V | 08:25:00 | 00:00:00 | 00:00:00 | |
| DL9RDZ-1 | 2026-09-06 00:50:02 | 64.29923 | -21.38728 | 76° | 27km/h | 21491m | -21.9m/s | -50.7°C | 1.0% | 0hPa | 0V | 08:25:00 | 00:00:00 | 00:00:00 | |
| DL9RDZ-1 | 2026-09-06 00:49:52 | 64.29901 | -21.38890 | 64° | 29km/h | 21718m | -23.3m/s | -50.6°C | 1.1% | 0hPa | 0V | 08:25:00 | 00:00:00 | 00:00:00 | |
| DL9RDZ-1 | 2026-09-06 00:49:41 | 64.29855 | -21.39052 | 61° | 37km/h | 21921m | -22.9m/s | -50.3°C | 1.0% | 0hPa | 0V | 08:25:00 | 00:00:00 | 00:00:00 | |
| DL9RDZ-1 | 2026-09-06 00:49:30 | 64.29826 | -21.39234 | 76° | 29km/h | 22152m | -19.5m/s | -49.5°C | 1.0% | 0hPa | 0V | 08:26:00 | 00:00:00 | 00:00:00 | |
| DL9RDZ-1 | 2026-09-06 00:49:20 | 64.29810 | -21.39372 | 68° | 29km/h | 22344m | -20.1m/s | -49.9°C | 1.0% | 0hPa | 0V | 08:26:00 | 00:00:00 | 00:00:00 | |
| DL9RDZ-1 | 2026-09-06 00:49:09 | 64.29765 | -21.39608 | 74° | 47km/h | 22590m | -19.2m/s | -50.1°C | 1.0% | 0hPa | 0V | 08:26:00 | 00:00:00 | 00:00:00 | |
| DL9RDZ-1 | 2026-09-06 00:48:59 | 64.29757 | -21.39880 | 100° | 40km/h | 22788m | -22.4m/s | -49.3°C | 1.0% | 0hPa | 0V | 08:26:00 | 00:00:00 | 00:00:00 | |
| DL9RDZ-1 | 2026-09-06 00:48:49 | 64.29770 | -21.40042 | 82° | 22km/h | 22985m | -21.8m/s | -48.5°C | 0.9% | 0hPa | 0V | 08:26:00 | 00:00:00 | 00:00:00 | |
| DL9RDZ-1 | 2026-09-06 00:48:39 | 64.29746 | -21.40186 | 66° | 26km/h | 23221m | -23.3m/s | -48.1°C | 0.9% | 0hPa | 0V | 08:27:00 | 00:00:00 | 00:00:00 | |
| DL9RDZ-1 | 2026-09-06 00:48:28 | 64.29721 | -21.40304 | 52° | 22km/h | 23483m | -23.8m/s | -48.6°C | 1.0% | 0hPa | 0V | 08:27:00 | 00:00:00 | 00:00:00 | |
| DL9RDZ-1 | 2026-09-06 00:48:18 | 64.29675 | -21.40446 | 54° | 31km/h | 23728m | -21.5m/s | -48.0°C | 0.9% | 0hPa | 0V | 08:27:00 | 00:00:00 | 00:00:00 | |
| DL9RDZ-1 | 2026-09-06 00:48:07 | 64.29641 | -21.40595 | 71° | 26km/h | 23971m | -26.8m/s | -46.7°C | 0.8% | 0hPa | 0V | 08:27:00 | 00:00:00 | 00:00:00 | |
| DL9RDZ-1 | 2026-09-06 00:47:56 | 64.29612 | -21.40731 | 47° | 31km/h | 24266m | -30.0m/s | -47.8°C | 0.9% | 0hPa | 0V | 08:27:00 | 00:00:00 | 00:00:00 | |
| DL9RDZ-1 | 2026-09-06 00:47:47 | 64.29548 | -21.40869 | 48° | 35km/h | 24560m | -31.7m/s | -47.4°C | 0.8% | 0hPa | 0V | 08:28:00 | 00:00:00 | 00:00:00 | |
| DL9RDZ-1 | 2026-09-06 00:47:35 | 64.29490 | -21.41053 | 54° | 33km/h | 24917m | -34.2m/s | -48.1°C | 0.8% | 0hPa | 0V | 08:28:00 | 00:00:00 | 00:00:00 | |
| DL9RDZ-1 | 2026-09-06 00:47:25 | 64.29439 | -21.41175 | 48° | 35km/h | 25232m | -32.4m/s | -49.2°C | 0.9% | 0hPa | 0V | 08:28:00 | 00:00:00 | 00:00:00 | |
| DL9RDZ-1 | 2026-09-06 00:47:15 | 64.29383 | -21.41307 | 52° | 27km/h | 25545m | -34.1m/s | -49.6°C | 1.0% | 0hPa | 0V | 08:28:00 | 00:00:00 | 00:00:00 | |
| DL9RDZ-1 | 2026-09-06 00:47:04 | 64.29352 | -21.41526 | 86° | 38km/h | 25932m | -32.7m/s | -48.1°C | 0.9% | 0hPa | 0V | 08:28:00 | 00:00:00 | 00:00:00 | |
| DL9RDZ-1 | 2026-09-06 00:46:53 | 64.29313 | -21.41681 | 34° | 33km/h | 26294m | -38.3m/s | -47.0°C | 0.8% | 0hPa | 0V | 08:29:00 | 00:00:00 | 00:00:00 | |
| DL9RDZ-1 | 2026-09-06 00:46:43 | 64.29227 | -21.41864 | 55° | 51km/h | 26682m | -36.0m/s | -46.7°C | 0.8% | 0hPa | 0V | 08:29:00 | 00:00:00 | 00:00:00 | |
| DL9RDZ-1 | 2026-09-06 00:46:31 | 64.29198 | -21.42197 | 93° | 51km/h | 27077m | -35.4m/s | -46.1°C | 0.7% | 0hPa | 0V | 08:29:00 | 00:00:00 | 00:00:00 | |
| DL9RDZ-1 | 2026-09-06 00:46:21 | 64.29205 | -21.42408 | 87° | 26km/h | 27448m | -35.2m/s | -47.7°C | 0.8% | 0hPa | 0V | 08:29:00 | 00:00:00 | 00:00:00 | |
| DL9RDZ-1 | 2026-09-06 00:46:10 | 64.29173 | -21.42583 | 64° | 46km/h | 27784m | -28.6m/s | -48.8°C | 1.0% | 0hPa | 0V | 08:29:00 | 00:00:00 | 00:00:00 | |
| DL9RDZ-1 | 2026-09-06 00:45:59 | 64.29156 | -21.42849 | 82° | 31km/h | 28127m | -35.4m/s | -47.3°C | 0.9% | 0hPa | 0V | 08:29:00 | 00:00:00 | 00:00:00 | |
| DL9RDZ-1 | 2026-09-06 00:45:48 | 64.29129 | -21.43015 | 90° | 27km/h | 28478m | -35.0m/s | -46.3°C | 0.8% | 0hPa | 0V | 08:29:00 | 00:00:00 | 00:00:00 | |
| DL9RDZ-1 | 2026-09-06 00:45:37 | 64.29131 | -21.43125 | 62° | 13km/h | 28874m | -39.9m/s | -44.4°C | 0.7% | 0hPa | 0V | 08:29:00 | 00:00:00 | 00:00:00 | |
| DL9RDZ-1 | 2026-09-06 00:45:27 | 64.29086 | -21.43268 | 60° | 29km/h | 29316m | -40.0m/s | -45.7°C | 0.8% | 0hPa | 0V | 08:29:00 | 00:00:00 | 00:00:00 | |
| DL9RDZ-1 | 2026-09-06 00:45:17 | 64.29059 | -21.43410 | 46° | 22km/h | 29669m | -37.7m/s | -45.4°C | 0.8% | 0hPa | 0V | 00:00:00 | 00:00:00 | 00:00:00 | |
| DL9RDZ-1 | 2026-09-06 00:45:05 | 64.29021 | -21.43560 | 69° | 27km/h | 30070m | -34.9m/s | -44.8°C | 0.7% | 0hPa | 0V | 00:00:00 | 00:00:00 | 00:00:00 | |
| DL9RDZ-1 | 2026-09-06 00:44:55 | 64.28989 | -21.43671 | 85° | 26km/h | 30389m | -19.6m/s | -44.0°C | 0.7% | 0hPa | 0V | 00:00:00 | 00:00:00 | 00:00:00 | |
| DL9RDZ-1 | 2026-09-06 00:44:45 | 64.28978 | -21.43852 | 65° | 26km/h | 30658m | -4.2m/s | -44.2°C | 0.7% | 0hPa | 0V | 00:00:00 | 00:00:00 | 00:00:00 | |
| DL9RDZ-1 | 2026-09-06 00:44:34 | 64.28952 | -21.44023 | 70° | 37km/h | 30606m | 5.1m/s | -44.2°C | 0.7% | 0hPa | 0V | 00:00:00 | 00:00:00 | 00:00:00 | |
| DL9RDZ-1 | 2026-09-06 00:44:24 | 64.28927 | -21.44164 | 72° | 26km/h | 30540m | 5.2m/s | -44.1°C | 0.7% | 0hPa | 0V | 00:00:00 | 00:00:00 | 00:00:00 | |
| DL9RDZ-1 | 2026-09-06 00:44:13 | 64.28898 | -21.44293 | 62° | 33km/h | 30475m | 5.9m/s | -44.0°C | 0.7% | 0hPa | 0V | 00:00:00 | 00:00:00 | 00:00:00 | |
| DL9RDZ-1 | 2026-09-06 00:44:01 | 64.28856 | -21.44448 | 64° | 16km/h | 30410m | 6.0m/s | -44.0°C | 0.7% | 0hPa | 0V | 00:00:00 | 00:00:00 | 00:00:00 | |
| DL9RDZ-1 | 2026-09-06 00:43:51 | 64.28820 | -21.44560 | 49° | 18km/h | 30351m | 5.5m/s | -44.3°C | 0.7% | 0hPa | 0V | 00:00:00 | 00:00:00 | 00:00:00 | |
| DL9RDZ-1 | 2026-09-06 00:43:40 | 64.28795 | -21.44679 | 63° | 31km/h | 30285m | 5.8m/s | -44.3°C | 0.7% | 0hPa | 0V | 00:00:00 | 00:00:00 | 00:00:00 | |
| DL9RDZ-1 | 2026-09-06 00:43:29 | 64.28762 | -21.44793 | 67° | 13km/h | 30220m | 4.6m/s | -44.2°C | 0.7% | 0hPa | 0V | 00:00:00 | 00:00:00 | 00:00:00 | |
| DL9RDZ-1 | 2026-09-06 00:43:19 | 64.28730 | -21.44929 | 71° | 29km/h | 30159m | 6.7m/s | -44.5°C | 0.7% | 0hPa | 0V | 00:00:00 | 00:00:00 | 00:00:00 | |
| DL9RDZ-1 | 2026-09-06 00:43:09 | 64.28701 | -21.45116 | 75° | 38km/h | 30091m | 5.4m/s | -44.6°C | 0.7% | 0hPa | 0V | 00:00:00 | 00:00:00 | 00:00:00 | |
| DL9RDZ-1 | 2026-09-06 00:42:58 | 64.28682 | -21.45288 | 79° | 26km/h | 30029m | 6.4m/s | -44.9°C | 0.7% | 0hPa | 0V | 00:00:00 | 00:00:00 | 00:00:00 | |
| DL9RDZ-1 | 2026-09-06 00:42:47 | 64.28651 | -21.45483 | 54° | 18km/h | 29964m | 6.8m/s | -44.9°C | 0.7% | 0hPa | 0V | 00:00:00 | 00:00:00 | 00:00:00 | |
| DL9RDZ-1 | 2026-09-06 00:42:35 | 64.28618 | -21.45649 | 69° | 27km/h | 29900m | 5.9m/s | -45.2°C | 0.7% | 0hPa | 0V | 00:00:00 | 00:00:00 | 00:00:00 | |
| DL9RDZ-1 | 2026-09-06 00:42:24 | 64.28580 | -21.45769 | 67° | 24km/h | 29838m | 5.1m/s | -45.3°C | 0.7% | 0hPa | 0V | 00:00:00 | 00:00:00 | 00:00:00 | |
| DL9RDZ-1 | 2026-09-06 00:42:14 | 64.28553 | -21.45921 | 73° | 26km/h | 29777m | 4.7m/s | -45.3°C | 0.7% | 0hPa | 0V | 00:00:00 | 00:00:00 | 00:00:00 | |
| DL9RDZ-1 | 2026-09-06 00:42:03 | 64.28526 | -21.46093 | 68° | 37km/h | 29716m | 4.9m/s | -45.5°C | 0.7% | 0hPa | 0V | 00:00:00 | 00:00:00 | 00:00:00 | |
| DL9RDZ-1 | 2026-09-06 00:41:51 | 64.28515 | -21.46269 | 83° | 24km/h | 29657m | 4.9m/s | -45.8°C | 0.8% | 0hPa | 0V | 00:00:00 | 00:00:00 | 00:00:00 | |
| DL9RDZ-1 | 2026-09-06 00:41:40 | 64.28497 | -21.46419 | 87° | 22km/h | 29599m | 5.1m/s | -45.7°C | 0.7% | 0hPa | 0V | 00:00:00 | 00:00:00 | 00:00:00 | |
| DL9RDZ-1 | 2026-09-06 00:41:30 | 64.28492 | -21.46560 | 74° | 24km/h | 29545m | 4.9m/s | -45.8°C | 0.8% | 0hPa | 0V | 00:00:00 | 00:00:00 | 00:00:00 | |
| DL9RDZ-1 | 2026-09-06 00:41:20 | 64.28471 | -21.46701 | 78° | 37km/h | 29490m | 5.0m/s | -45.8°C | 0.7% | 0hPa | 0V | 00:00:00 | 00:00:00 | 00:00:00 | |
| DL9RDZ-1 | 2026-09-06 00:41:09 | 64.28440 | -21.46909 | 78° | 31km/h | 29431m | 4.3m/s | -45.9°C | 0.7% | 0hPa | 0V | 00:00:00 | 00:00:00 | 00:00:00 | |
| DL9RDZ-1 | 2026-09-06 00:40:58 | 64.28392 | -21.47129 | 61° | 42km/h | 29372m | 5.2m/s | -46.3°C | 0.8% | 0hPa | 0V | 00:00:00 | 00:00:00 | 00:00:00 | |
| DL9RDZ-1 | 2026-09-06 00:40:47 | 64.28338 | -21.47369 | 55° | 40km/h | 29314m | 5.2m/s | -46.7°C | 0.8% | 0hPa | 0V | 00:00:00 | 00:00:00 | 00:00:00 | |
| DL9RDZ-1 | 2026-09-06 00:40:37 | 64.28291 | -21.47563 | 65° | 31km/h | 29260m | 4.8m/s | -46.6°C | 0.8% | 0hPa | 0V | 00:00:00 | 00:00:00 | 00:00:00 | |
| DL9RDZ-1 | 2026-09-06 00:40:27 | 64.28248 | -21.47695 | 75° | 27km/h | 29204m | 5.4m/s | -46.5°C | 0.8% | 0hPa | 0V | 00:00:00 | 00:00:00 | 00:00:00 | |
| DL9RDZ-1 | 2026-09-06 00:40:17 | 64.28219 | -21.47823 | 33° | 22km/h | 29142m | 5.2m/s | -46.3°C | 0.8% | 0hPa | 0V | 00:00:00 | 00:00:00 | 00:00:00 | |
| DL9RDZ-1 | 2026-09-06 00:40:07 | 64.28191 | -21.47905 | 54° | 16km/h | 29086m | 6.4m/s | -46.1°C | 0.8% | 0hPa | 0V | 00:00:00 | 00:00:00 | 00:00:00 | |
| DL9RDZ-1 | 2026-09-06 00:39:56 | 64.28179 | -21.47942 | 88° | 15km/h | 29028m | 6.6m/s | -45.7°C | 0.8% | 0hPa | 0V | 00:00:00 | 00:00:00 | 00:00:00 | |
| DL9RDZ-1 | 2026-09-06 00:39:46 | 64.28168 | -21.48034 | 125° | 11km/h | 28963m | 6.3m/s | -45.3°C | 0.7% | 0hPa | 0V | 00:00:00 | 00:00:00 | 00:00:00 | |
| DL9RDZ-1 | 2026-09-06 00:39:34 | 64.28176 | -21.48114 | 87° | 15km/h | 28897m | 5.4m/s | -45.4°C | 0.8% | 0hPa | 0V | 00:00:00 | 00:00:00 | 00:00:00 | |
| DL9RDZ-1 | 2026-09-06 00:39:23 | 64.28204 | -21.48219 | 121° | 15km/h | 28833m | 5.5m/s | -45.6°C | 0.7% | 0hPa | 0V | 00:00:00 | 00:00:00 | 00:00:00 | |
| DL9RDZ-1 | 2026-09-06 00:39:13 | 64.28230 | -21.48314 | 116° | 35km/h | 28776m | 6.9m/s | -46.2°C | 0.8% | 0hPa | 0V | 00:00:00 | 00:00:00 | 00:00:00 | |
| DL9RDZ-1 | 2026-09-06 00:39:03 | 64.28249 | -21.48505 | 107° | 26km/h | 28708m | 6.7m/s | -46.5°C | 0.8% | 0hPa | 0V | 00:00:00 | 00:00:00 | 00:00:00 | |
| DL9RDZ-1 | 2026-09-06 00:38:53 | 64.28250 | -21.48651 | 85° | 20km/h | 28650m | 5.2m/s | -46.6°C | 0.8% | 0hPa | 0V | 00:00:00 | 00:00:00 | 00:00:00 | |
| DL9RDZ-1 | 2026-09-06 00:38:42 | 64.28226 | -21.48787 | 58° | 26km/h | 28585m | 6.1m/s | -46.6°C | 0.8% | 0hPa | 0V | 00:00:00 | 00:00:00 | 00:00:00 | |
| DL9RDZ-1 | 2026-09-06 00:38:30 | 64.28206 | -21.48924 | 103° | 27km/h | 28520m | 6.6m/s | -47.1°C | 0.8% | 0hPa | 0V | 00:00:00 | 00:00:00 | 00:00:00 | |
| DL9RDZ-1 | 2026-09-06 00:38:20 | 64.28198 | -21.49094 | 64° | 24km/h | 28457m | 5.5m/s | -47.2°C | 0.8% | 0hPa | 0V | 00:00:00 | 00:00:00 | 00:00:00 | |
| DL9RDZ-1 | 2026-09-06 00:38:09 | 64.28182 | -21.49249 | 77° | 29km/h | 28399m | 5.3m/s | -47.3°C | 0.8% | 0hPa | 0V | 00:00:00 | 00:00:00 | 00:00:00 | |
| DL9RDZ-1 | 2026-09-06 00:38:00 | 64.28148 | -21.49368 | 65° | 24km/h | 28342m | 5.1m/s | -47.4°C | 0.8% | 0hPa | 0V | 00:00:00 | 00:00:00 | 00:00:00 | |
| DL9RDZ-1 | 2026-09-06 00:37:48 | 64.28110 | -21.49542 | 62° | 35km/h | 28279m | 5.0m/s | -47.6°C | 0.8% | 0hPa | 0V | 00:00:00 | 00:00:00 | 00:00:00 | |
| DL9RDZ-1 | 2026-09-06 00:37:38 | 64.28088 | -21.49730 | 68° | 31km/h | 28218m | 6.0m/s | -47.9°C | 0.9% | 0hPa | 0V | 00:00:00 | 00:00:00 | 00:00:00 | |
| DL9RDZ-1 | 2026-09-06 00:37:27 | 64.28099 | -21.49966 | 101° | 44km/h | 28157m | 5.8m/s | -47.7°C | 0.8% | 0hPa | 0V | 00:00:00 | 00:00:00 | 00:00:00 | |
| DL9RDZ-1 | 2026-09-06 00:37:16 | 64.28101 | -21.50229 | 110° | 42km/h | 28097m | 5.7m/s | -47.8°C | 0.8% | 0hPa | 0V | 00:00:00 | 00:00:00 | 00:00:00 | |
| DL9RDZ-1 | 2026-09-06 00:37:04 | 64.28097 | -21.50529 | 90° | 44km/h | 28037m | 4.8m/s | -48.0°C | 0.9% | 0hPa | 0V | 00:00:00 | 00:00:00 | 00:00:00 | |
| DL9RDZ-1 | 2026-09-06 00:36:53 | 64.28086 | -21.50825 | 77° | 53km/h | 27978m | 5.3m/s | -48.2°C | 0.8% | 0hPa | 0V | 00:00:00 | 00:00:00 | 00:00:00 | |
| DL9RDZ-1 | 2026-09-06 00:36:43 | 64.28056 | -21.51094 | 80° | 38km/h | 27925m | 4.3m/s | -48.7°C | 0.9% | 0hPa | 0V | 00:00:00 | 00:00:00 | 00:00:00 | |
| DL9RDZ-1 | 2026-09-06 00:36:33 | 64.28010 | -21.51334 | 70° | 47km/h | 27869m | 5.0m/s | -48.9°C | 0.9% | 0hPa | 0V | 00:00:00 | 00:00:00 | 00:00:00 | |
| DL9RDZ-1 | 2026-09-06 00:36:22 | 64.27954 | -21.51535 | 54° | 35km/h | 27808m | 5.3m/s | -48.9°C | 0.9% | 0hPa | 0V | 00:00:00 | 00:00:00 | 00:00:00 | |
| DL9RDZ-1 | 2026-09-06 00:36:11 | 64.27911 | -21.51712 | 43° | 31km/h | 27745m | 5.3m/s | -48.7°C | 0.9% | 0hPa | 0V | 00:00:00 | 00:00:00 | 00:00:00 | |
| DL9RDZ-1 | 2026-09-06 00:36:00 | 64.27869 | -21.51850 | 60° | 22km/h | 27683m | 6.2m/s | -48.5°C | 0.9% | 0hPa | 0V | 00:00:00 | 00:00:00 | 00:00:00 | |
| DL9RDZ-1 | 2026-09-06 00:35:50 | 64.27839 | -21.51951 | 74° | 22km/h | 27627m | 6.3m/s | -48.4°C | 0.9% | 0hPa | 0V | 00:00:00 | 00:00:00 | 00:00:00 | |
| DL9RDZ-1 | 2026-09-06 00:35:39 | 64.27830 | -21.52050 | 67° | 16km/h | 27563m | 4.6m/s | -48.2°C | 0.9% | 0hPa | 0V | 00:00:00 | 00:00:00 | 00:00:00 | |
| DL9RDZ-1 | 2026-09-06 00:35:30 | 64.27840 | -21.52149 | 109° | 13km/h | 27505m | 6.4m/s | -47.9°C | 0.9% | 0hPa | 0V | 00:00:00 | 00:00:00 | 00:00:00 | |
| DL9RDZ-1 | 2026-09-06 00:35:18 | 64.27857 | -21.52277 | 112° | 22km/h | 27441m | 5.8m/s | -47.5°C | 0.9% | 0hPa | 0V | 00:00:00 | 00:00:00 | 00:00:00 | |
| DL9RDZ-1 | 2026-09-06 00:35:07 | 64.27875 | -21.52432 | 95° | 29km/h | 27379m | 5.6m/s | -47.0°C | 0.9% | 0hPa | 0V | 00:00:00 | 00:00:00 | 00:00:00 | |
| DL9RDZ-1 | 2026-09-06 00:34:56 | 64.27895 | -21.52636 | 107° | 37km/h | 27314m | 5.9m/s | -46.6°C | 0.8% | 0hPa | 0V | 00:00:00 | 00:00:00 | 00:00:00 | |
| DL9RDZ-1 | 2026-09-06 00:34:46 | 64.27906 | -21.52837 | 100° | 42km/h | 27255m | 5.7m/s | -46.2°C | 0.8% | 0hPa | 0V | 00:00:00 | 00:00:00 | 00:00:00 | |
| DL9RDZ-1 | 2026-09-06 00:34:36 | 64.27920 | -21.53102 | 104° | 40km/h | 27191m | 6.3m/s | -45.7°C | 0.8% | 0hPa | 0V | 00:00:00 | 00:00:00 | 00:00:00 | |
| DL9RDZ-1 | 2026-09-06 00:34:24 | 64.27934 | -21.53384 | 94° | 42km/h | 27127m | 5.0m/s | -45.7°C | 0.8% | 0hPa | 0V | 00:00:00 | 00:00:00 | 00:00:00 | |
| DL9RDZ-1 | 2026-09-06 00:34:13 | 64.27936 | -21.53672 | 92° | 51km/h | 27064m | 5.3m/s | -45.9°C | 0.8% | 0hPa | 0V | 00:00:00 | 00:00:00 | 00:00:00 | |
| DL9RDZ-1 | 2026-09-06 00:34:02 | 64.27952 | -21.54005 | 86° | 44km/h | 27004m | 4.4m/s | -46.1°C | 0.8% | 0hPa | 0V | 00:00:00 | 00:00:00 | 00:00:00 | |
| DL9RDZ-1 | 2026-09-06 00:33:52 | 64.27931 | -21.54327 | 79° | 55km/h | 26950m | 4.4m/s | -46.5°C | 0.8% | 0hPa | 0V | 00:00:00 | 00:00:00 | 00:00:00 | |
| DL9RDZ-1 | 2026-09-06 00:33:42 | 64.27892 | -21.54630 | 60° | 60km/h | 26891m | 6.3m/s | -47.2°C | 0.9% | 0hPa | 0V | 00:00:00 | 00:00:00 | 00:00:00 | |
| DL9RDZ-1 | 2026-09-06 00:33:31 | 64.27834 | -21.54906 | 59° | 44km/h | 26838m | 6.5m/s | -47.2°C | 0.8% | 0hPa | 0V | 00:00:00 | 00:00:00 | 00:00:00 | |
| DL9RDZ-1 | 2026-09-06 00:33:21 | 64.27749 | -21.55139 | 62° | 47km/h | 26779m | 4.9m/s | -47.1°C | 0.9% | 0hPa | 0V | 00:00:00 | 00:00:00 | 00:00:00 | |
| DL9RDZ-1 | 2026-09-06 00:33:09 | 64.27670 | -21.55334 | 36° | 38km/h | 26719m | 5.1m/s | -47.2°C | 0.9% | 0hPa | 0V | 00:00:00 | 00:00:00 | 00:00:00 | |
| DL9RDZ-1 | 2026-09-06 00:33:00 | 64.27593 | -21.55489 | 39° | 46km/h | 26666m | 4.0m/s | -47.1°C | 0.8% | 0hPa | 0V | 00:00:00 | 00:00:00 | 00:00:00 | |
| DL9RDZ-1 | 2026-09-06 00:32:48 | 64.27510 | -21.55645 | 58° | 37km/h | 26608m | 6.3m/s | -47.0°C | 0.8% | 0hPa | 0V | 00:00:00 | 00:00:00 | 00:00:00 | |
| DL9RDZ-1 | 2026-09-06 00:32:37 | 64.27425 | -21.55796 | 32° | 37km/h | 26552m | 6.4m/s | -47.0°C | 0.8% | 0hPa | 0V | 00:00:00 | 00:00:00 | 00:00:00 | |
| DL9RDZ-1 | 2026-09-06 00:32:27 | 64.27352 | -21.55901 | 22° | 40km/h | 26494m | 5.5m/s | -46.8°C | 0.8% | 0hPa | 0V | 00:00:00 | 00:00:00 | 00:00:00 | |
| DL9RDZ-1 | 2026-09-06 00:32:18 | 64.27270 | -21.55966 | 17° | 31km/h | 26438m | 5.4m/s | -46.8°C | 0.8% | 0hPa | 0V | 00:00:00 | 00:00:00 | 00:00:00 | |
| DL9RDZ-1 | 2026-09-06 00:32:06 | 64.27178 | -21.56036 | 19° | 35km/h | 26378m | 6.5m/s | -47.0°C | 0.8% | 0hPa | 0V | 00:00:00 | 00:00:00 | 00:00:00 | |
| DL9RDZ-1 | 2026-09-06 00:31:55 | 64.27112 | -21.56148 | 43° | 33km/h | 26318m | 4.2m/s | -47.6°C | 0.8% | 0hPa | 0V | 00:00:00 | 00:00:00 | 00:00:00 | |
| DL9RDZ-1 | 2026-09-06 00:31:45 | 64.27065 | -21.56242 | 72° | 27km/h | 26256m | 6.6m/s | -48.0°C | 0.9% | 0hPa | 0V | 00:00:00 | 00:00:00 | 00:00:00 | |
| DL9RDZ-1 | 2026-09-06 00:31:34 | 64.27032 | -21.56395 | 67° | 27km/h | 26192m | 4.8m/s | -48.2°C | 0.9% | 0hPa | 0V | 00:00:00 | 00:00:00 | 00:00:00 | |
| DL9RDZ-1 | 2026-09-06 00:31:23 | 64.27006 | -21.56617 | 64° | 33km/h | 26132m | 5.1m/s | -48.2°C | 0.9% | 0hPa | 0V | 00:00:00 | 00:00:00 | 00:00:00 | |
| DL9RDZ-1 | 2026-09-06 00:31:11 | 64.26982 | -21.56825 | 81° | 35km/h | 26071m | 6.5m/s | -48.5°C | 0.9% | 0hPa | 0V | 00:00:00 | 00:00:00 | 00:00:00 | |
| DL9RDZ-1 | 2026-09-06 00:31:00 | 64.26959 | -21.57087 | 85° | 46km/h | 26008m | 6.5m/s | -48.5°C | 0.9% | 0hPa | 0V | 00:00:00 | 00:00:00 | 00:00:00 | |
| DL9RDZ-1 | 2026-09-06 00:30:50 | 64.26930 | -21.57322 | 73° | 44km/h | 25953m | 6.4m/s | -48.6°C | 0.9% | 0hPa | 0V | 00:00:00 | 00:00:00 | 00:00:00 | |
| DL9RDZ-1 | 2026-09-06 00:30:39 | 64.26884 | -21.57611 | 61° | 44km/h | 25891m | 4.5m/s | -48.6°C | 0.9% | 0hPa | 0V | 00:00:00 | 00:00:00 | 00:00:00 | |
| DL9RDZ-1 | 2026-09-06 00:30:28 | 64.26832 | -21.57880 | 65° | 49km/h | 25829m | 6.2m/s | -49.1°C | 0.9% | 0hPa | 0V | 00:00:00 | 00:00:00 | 00:00:00 | |
| DL9RDZ-1 | 2026-09-06 00:30:17 | 64.26765 | -21.58085 | 56° | 46km/h | 25767m | 5.7m/s | -49.1°C | 0.9% | 0hPa | 0V | 00:00:00 | 00:00:00 | 00:00:00 | |
| DL9RDZ-1 | 2026-09-06 00:30:06 | 64.26708 | -21.58277 | 51° | 29km/h | 25709m | 4.9m/s | -49.7°C | 1.0% | 0hPa | 0V | 00:00:00 | 00:00:00 | 00:00:00 | |
| DL9RDZ-1 | 2026-09-06 00:29:55 | 64.26653 | -21.58420 | 33° | 29km/h | 25649m | 5.9m/s | -50.0°C | 1.0% | 0hPa | 0V | 00:00:00 | 00:00:00 | 00:00:00 | |
| DL9RDZ-1 | 2026-09-06 00:29:46 | 64.26584 | -21.58512 | 32° | 29km/h | 25592m | 5.4m/s | -50.0°C | 1.0% | 0hPa | 0V | 00:00:00 | 00:00:00 | 00:00:00 | |
| DL9RDZ-1 | 2026-09-06 00:29:34 | 64.26501 | -21.58649 | 41° | 40km/h | 25529m | 5.8m/s | -49.9°C | 1.0% | 0hPa | 0V | 00:00:00 | 00:00:00 | 00:00:00 | |
| DL9RDZ-1 | 2026-09-06 00:29:25 | 64.26430 | -21.58776 | 43° | 35km/h | 25475m | 4.3m/s | -50.4°C | 1.0% | 0hPa | 0V | 00:00:00 | 00:00:00 | 00:00:00 | |
| DL9RDZ-1 | 2026-09-06 00:29:14 | 64.26356 | -21.58951 | 43° | 40km/h | 25417m | 5.4m/s | -50.3°C | 1.1% | 0hPa | 0V | 00:00:00 | 00:00:00 | 00:00:00 | |
| DL9RDZ-1 | 2026-09-06 00:29:02 | 64.26275 | -21.59110 | 38° | 31km/h | 25355m | 4.9m/s | -50.0°C | 1.0% | 0hPa | 0V | 00:00:00 | 00:00:00 | 00:00:00 | |
| DL9RDZ-1 | 2026-09-06 00:28:53 | 64.26202 | -21.59218 | 43° | 29km/h | 25298m | 5.8m/s | -49.8°C | 1.0% | 0hPa | 0V | 00:00:00 | 00:00:00 | 00:00:00 | |
| DL9RDZ-1 | 2026-09-06 00:28:41 | 64.26139 | -21.59319 | 31° | 26km/h | 25238m | 6.5m/s | -49.7°C | 1.0% | 0hPa | 0V | 00:00:00 | 00:00:00 | 00:00:00 | |
| DL9RDZ-1 | 2026-09-06 00:28:31 | 64.26090 | -21.59393 | 28° | 27km/h | 25183m | 4.8m/s | -49.3°C | 1.0% | 0hPa | 0V | 00:00:00 | 00:00:00 | 00:00:00 | |
| DL9RDZ-1 | 2026-09-06 00:28:20 | 64.26021 | -21.59521 | 31° | 38km/h | 25121m | 5.5m/s | -48.8°C | 1.0% | 0hPa | 0V | 00:00:00 | 00:00:00 | 00:00:00 | |
| DL9RDZ-1 | 2026-09-06 00:28:10 | 64.25947 | -21.59642 | 43° | 40km/h | 25067m | 5.8m/s | -48.6°C | 1.0% | 0hPa | 0V | 00:00:00 | 00:00:00 | 00:00:00 | |
| DL9RDZ-1 | 2026-09-06 00:27:59 | 64.25870 | -21.59766 | 46° | 38km/h | 25008m | 5.0m/s | -48.5°C | 1.0% | 0hPa | 0V | 00:00:00 | 00:00:00 | 00:00:00 | |
| DL9RDZ-1 | 2026-09-06 00:27:48 | 64.25801 | -21.59950 | 51° | 40km/h | 24943m | 5.1m/s | -48.5°C | 0.9% | 0hPa | 0V | 00:00:00 | 00:00:00 | 00:00:00 | |
| DL9RDZ-1 | 2026-09-06 00:27:38 | 64.25751 | -21.60158 | 61° | 38km/h | 24887m | 5.2m/s | -48.7°C | 0.9% | 0hPa | 0V | 00:00:00 | 00:00:00 | 00:00:00 | |
| DL9RDZ-1 | 2026-09-06 00:27:27 | 64.25690 | -21.60332 | 53° | 33km/h | 24823m | 5.3m/s | -48.4°C | 1.0% | 0hPa | 0V | 00:00:00 | 00:00:00 | 00:00:00 | |
| DL9RDZ-1 | 2026-09-06 00:27:17 | 64.25617 | -21.60508 | 45° | 26km/h | 24758m | 5.8m/s | -48.4°C | 1.0% | 0hPa | 0V | 00:00:00 | 00:00:00 | 00:00:00 | |
| DL9RDZ-1 | 2026-09-06 00:27:05 | 64.25555 | -21.60680 | 53° | 37km/h | 24696m | 6.2m/s | -48.0°C | 1.0% | 0hPa | 0V | 00:00:00 | 00:00:00 | 00:00:00 | |
| DL9RDZ-1 | 2026-09-06 00:26:55 | 64.25502 | -21.60795 | 48° | 37km/h | 24642m | 6.5m/s | -47.7°C | 0.9% | 0hPa | 0V | 00:00:00 | 00:00:00 | 00:00:00 | |
| DL9RDZ-1 | 2026-09-06 00:26:45 | 64.25426 | -21.60943 | 40° | 31km/h | 24578m | 5.9m/s | -47.4°C | 0.9% | 0hPa | 0V | 00:00:00 | 00:00:00 | 00:00:00 | |
| DL9RDZ-1 | 2026-09-06 00:26:34 | 64.25355 | -21.61071 | 41° | 35km/h | 24520m | 4.5m/s | -47.2°C | 0.9% | 0hPa | 0V | 00:00:00 | 00:00:00 | 00:00:00 | |
| DL9RDZ-1 | 2026-09-06 00:26:23 | 64.25275 | -21.61182 | 50° | 35km/h | 24459m | 6.6m/s | -47.2°C | 0.9% | 0hPa | 0V | 00:00:00 | 00:00:00 | 00:00:00 | |
| DL9RDZ-1 | 2026-09-06 00:26:13 | 64.25230 | -21.61311 | 36° | 27km/h | 24403m | 6.4m/s | -47.6°C | 0.9% | 0hPa | 0V | 00:00:00 | 00:00:00 | 00:00:00 | |
| DL9RDZ-1 | 2026-09-06 00:26:03 | 64.25172 | -21.61425 | 39° | 26km/h | 24340m | 5.8m/s | -47.7°C | 1.0% | 0hPa | 0V | 00:00:00 | 00:00:00 | 00:00:00 | |
| DL9RDZ-1 | 2026-09-06 00:25:52 | 64.25121 | -21.61555 | 57° | 31km/h | 24286m | 6.1m/s | -47.5°C | 0.9% | 0hPa | 0V | 00:00:00 | 00:00:00 | 00:00:00 | |
| DL9RDZ-1 | 2026-09-06 00:25:42 | 64.25092 | -21.61684 | 61° | 27km/h | 24231m | 6.4m/s | -47.7°C | 0.9% | 0hPa | 0V | 00:00:00 | 00:00:00 | 00:00:00 | |
| DL9RDZ-1 | 2026-09-06 00:25:32 | 64.25069 | -21.61818 | 81° | 20km/h | 24167m | 5.8m/s | -47.6°C | 0.9% | 0hPa | 0V | 00:00:00 | 00:00:00 | 00:00:00 | |
| DL9RDZ-1 | 2026-09-06 00:25:20 | 64.25047 | -21.61979 | 87° | 22km/h | 24104m | 6.1m/s | -47.5°C | 1.0% | 0hPa | 0V | 00:00:00 | 00:00:00 | 00:00:00 | |
| DL9RDZ-1 | 2026-09-06 00:25:09 | 64.25029 | -21.62180 | 82° | 33km/h | 24041m | 6.1m/s | -47.2°C | 0.9% | 0hPa | 0V | 00:00:00 | 00:00:00 | 00:00:00 | |
| DL9RDZ-1 | 2026-09-06 00:24:58 | 64.25009 | -21.62368 | 82° | 33km/h | 23977m | 4.9m/s | -46.9°C | 0.9% | 0hPa | 0V | 00:00:00 | 00:00:00 | 00:00:00 | |
| DL9RDZ-1 | 2026-09-06 00:24:47 | 64.24981 | -21.62549 | 75° | 33km/h | 23913m | 5.0m/s | -47.0°C | 0.9% | 0hPa | 0V | 00:00:00 | 00:00:00 | 00:00:00 | |
| DL9RDZ-1 | 2026-09-06 00:24:37 | 64.24950 | -21.62720 | 53° | 33km/h | 23857m | 4.5m/s | -48.0°C | 0.9% | 0hPa | 0V | 00:00:00 | 00:00:00 | 00:00:00 | |
| DL9RDZ-1 | 2026-09-06 00:24:26 | 64.24915 | -21.62911 | 69° | 33km/h | 23794m | 6.1m/s | -48.3°C | 1.0% | 0hPa | 0V | 00:00:00 | 00:00:00 | 00:00:00 | |
| DL9RDZ-1 | 2026-09-06 00:24:05 | 64.24850 | -21.63224 | 65° | 24km/h | 23675m | 5.7m/s | -48.4°C | 0.9% | 0hPa | 0V | 00:00:00 | 00:00:00 | 00:00:00 | |
| DL9RDZ-1 | 2026-09-06 00:23:55 | 64.24821 | -21.63368 | 50° | 26km/h | 23618m | 5.2m/s | -48.6°C | 1.0% | 0hPa | 0V | 00:00:00 | 00:00:00 | 00:00:00 | |
| DL9RDZ-1 | 2026-09-06 00:23:44 | 64.24787 | -21.63486 | 63° | 31km/h | 23555m | 4.8m/s | -48.6°C | 1.0% | 0hPa | 0V | 00:00:00 | 00:00:00 | 00:00:00 | |
| DL9RDZ-1 | 2026-09-06 00:23:33 | 64.24772 | -21.63622 | 69° | 22km/h | 23492m | 4.5m/s | -48.7°C | 1.0% | 0hPa | 0V | 00:00:00 | 00:00:00 | 00:00:00 | |
| DL9RDZ-1 | 2026-09-06 00:23:23 | 64.24760 | -21.63777 | 84° | 24km/h | 23436m | 5.4m/s | -48.6°C | 1.0% | 0hPa | 0V | 00:00:00 | 00:00:00 | 00:00:00 | |
| DL9RDZ-1 | 2026-09-06 00:23:13 | 64.24748 | -21.63911 | 79° | 24km/h | 23382m | 6.2m/s | -48.5°C | 1.0% | 0hPa | 0V | 00:00:00 | 00:00:00 | 00:00:00 | |
| DL9RDZ-1 | 2026-09-06 00:23:02 | 64.24732 | -21.64066 | 80° | 27km/h | 23321m | 5.1m/s | -48.4°C | 1.0% | 0hPa | 0V | 00:00:00 | 00:00:00 | 00:00:00 | |
| DL9RDZ-1 | 2026-09-06 00:22:52 | 64.24713 | -21.64203 | 61° | 29km/h | 23265m | 5.2m/s | -48.0°C | 1.0% | 0hPa | 0V | 00:00:00 | 00:00:00 | 00:00:00 | |
| DL9RDZ-1 | 2026-09-06 00:22:41 | 64.24689 | -21.64342 | 65° | 22km/h | 23203m | 5.2m/s | -47.8°C | 1.0% | 0hPa | 0V | 00:00:00 | 00:00:00 | 00:00:00 | |
| DL9RDZ-1 | 2026-09-06 00:22:31 | 64.24653 | -21.64477 | 66° | 24km/h | 23147m | 5.4m/s | -48.1°C | 1.0% | 0hPa | 0V | 00:00:00 | 00:00:00 | 00:00:00 | |
| DL9RDZ-1 | 2026-09-06 00:22:21 | 64.24629 | -21.64608 | 53° | 26km/h | 23093m | 5.3m/s | -48.2°C | 1.0% | 0hPa | 0V | 00:00:00 | 00:00:00 | 00:00:00 | |
| DL9RDZ-1 | 2026-09-06 00:22:11 | 64.24606 | -21.64760 | 92° | 26km/h | 23038m | 5.9m/s | -48.3°C | 1.0% | 0hPa | 0V | 00:00:00 | 00:00:00 | 00:00:00 | |
| DL9RDZ-1 | 2026-09-06 00:22:01 | 64.24602 | -21.64901 | 88° | 18km/h | 22983m | 5.1m/s | -48.4°C | 1.0% | 0hPa | 0V | 00:00:00 | 00:00:00 | 00:00:00 | |
| DL9RDZ-1 | 2026-09-06 00:21:50 | 64.24612 | -21.65051 | 86° | 27km/h | 22923m | 6.4m/s | -48.5°C | 1.0% | 0hPa | 0V | 00:00:00 | 00:00:00 | 00:00:00 | |
| DL9RDZ-1 | 2026-09-06 00:21:39 | 64.24631 | -21.65273 | 104° | 42km/h | 22863m | 5.9m/s | -48.8°C | 1.0% | 0hPa | 0V | 00:00:00 | 00:00:00 | 00:00:00 | |
| DL9RDZ-1 | 2026-09-06 00:21:29 | 64.24634 | -21.65496 | 101° | 42km/h | 22810m | 4.9m/s | -49.1°C | 1.0% | 0hPa | 0V | 00:00:00 | 00:00:00 | 00:00:00 | |
| DL9RDZ-1 | 2026-09-06 00:21:19 | 64.24632 | -21.65758 | 81° | 47km/h | 22756m | 5.9m/s | -49.4°C | 1.0% | 0hPa | 0V | 00:00:00 | 00:00:00 | 00:00:00 | |
| DL9RDZ-1 | 2026-09-06 00:21:08 | 64.24620 | -21.66053 | 75° | 46km/h | 22700m | 5.3m/s | -49.4°C | 1.0% | 0hPa | 0V | 00:00:00 | 00:00:00 | 00:00:00 | |
| DL9RDZ-1 | 2026-09-06 00:20:57 | 64.24583 | -21.66323 | 74° | 49km/h | 22642m | 5.5m/s | -49.7°C | 1.0% | 0hPa | 0V | 00:00:00 | 00:00:00 | 00:00:00 | |
| DL9RDZ-1 | 2026-09-06 00:20:47 | 64.24526 | -21.66580 | 61° | 44km/h | 22589m | 4.4m/s | -50.0°C | 1.1% | 0hPa | 0V | 00:00:00 | 00:00:00 | 00:00:00 | |
| DL9RDZ-1 | 2026-09-06 00:20:37 | 64.24479 | -21.66816 | 52° | 46km/h | 22538m | 5.3m/s | -50.4°C | 1.1% | 0hPa | 0V | 00:00:00 | 00:00:00 | 00:00:00 | |
| DL9RDZ-1 | 2026-09-06 00:20:27 | 64.24414 | -21.67019 | 65° | 38km/h | 22486m | 6.1m/s | -50.1°C | 1.1% | 0hPa | 0V | 00:00:00 | 00:00:00 | 00:00:00 | |
| DL9RDZ-1 | 2026-09-06 00:20:16 | 64.24348 | -21.67219 | 64° | 38km/h | 22430m | 4.0m/s | -49.9°C | 1.1% | 0hPa | 0V | 00:00:00 | 00:00:00 | 00:00:00 | |
| DL9RDZ-1 | 2026-09-06 00:20:05 | 64.24291 | -21.67406 | 55° | 27km/h | 22374m | 4.9m/s | -49.8°C | 1.1% | 0hPa | 0V | 00:00:00 | 00:00:00 | 00:00:00 | |
| DL9RDZ-1 | 2026-09-06 00:19:54 | 64.24260 | -21.67586 | 48° | 27km/h | 22321m | 5.0m/s | -49.7°C | 1.1% | 0hPa | 0V | 00:00:00 | 00:00:00 | 00:00:00 | |
| DL9RDZ-1 | 2026-09-06 00:19:44 | 64.24235 | -21.67710 | 75° | 29km/h | 22270m | 5.1m/s | -49.4°C | 1.1% | 0hPa | 0V | 00:00:00 | 00:00:00 | 00:00:00 | |
| DL9RDZ-1 | 2026-09-06 00:19:33 | 64.24210 | -21.67877 | 76° | 31km/h | 22211m | 5.1m/s | -49.5°C | 1.1% | 0hPa | 0V | 00:00:00 | 00:00:00 | 00:00:00 | |
| DL9RDZ-1 | 2026-09-06 00:19:22 | 64.24174 | -21.68058 | 82° | 27km/h | 22154m | 5.0m/s | -49.8°C | 1.1% | 0hPa | 0V | 00:00:00 | 00:00:00 | 00:00:00 | |
| DL9RDZ-1 | 2026-09-06 00:19:11 | 64.24152 | -21.68226 | 63° | 29km/h | 22098m | 4.0m/s | -49.7°C | 1.1% | 0hPa | 0V | 00:00:00 | 00:00:00 | 00:00:00 | |
| DL9RDZ-1 | 2026-09-06 00:19:00 | 64.24115 | -21.68401 | 66° | 33km/h | 22041m | 4.9m/s | -50.3°C | 1.1% | 0hPa | 0V | 00:00:00 | 00:00:00 | 00:00:00 | |
| DL9RDZ-1 | 2026-09-06 00:18:50 | 64.24072 | -21.68557 | 48° | 33km/h | 21988m | 5.8m/s | -50.5°C | 1.1% | 0hPa | 0V | 00:00:00 | 00:00:00 | 00:00:00 | |
| DL9RDZ-1 | 2026-09-06 00:18:39 | 64.24009 | -21.68707 | 57° | 31km/h | 21929m | 4.9m/s | -50.3°C | 1.1% | 0hPa | 0V | 00:00:00 | 00:00:00 | 00:00:00 | |
| DL9RDZ-1 | 2026-09-06 00:18:28 | 64.23958 | -21.68868 | 64° | 31km/h | 21868m | 5.3m/s | -50.2°C | 1.1% | 0hPa | 0V | 00:00:00 | 00:00:00 | 00:00:00 | |
| DL9RDZ-1 | 2026-09-06 00:18:18 | 64.23920 | -21.69000 | 59° | 26km/h | 21815m | 4.8m/s | -50.1°C | 1.1% | 0hPa | 0V | 00:00:00 | 00:00:00 | 00:00:00 | |
| DL9RDZ-1 | 2026-09-06 00:18:08 | 64.23879 | -21.69111 | 47° | 27km/h | 21764m | 5.9m/s | -50.2°C | 1.1% | 0hPa | 0V | 00:00:00 | 00:00:00 | 00:00:00 | |
| DL9RDZ-1 | 2026-09-06 00:17:57 | 64.23846 | -21.69258 | 67° | 29km/h | 21705m | 4.9m/s | -50.4°C | 1.1% | 0hPa | 0V | 00:00:00 | 00:00:00 | 00:00:00 | |
| DL9RDZ-1 | 2026-09-06 00:17:46 | 64.23828 | -21.69410 | 93° | 26km/h | 21645m | 6.3m/s | -50.6°C | 1.1% | 0hPa | 0V | 00:00:00 | 00:00:00 | 00:00:00 | |
| DL9RDZ-1 | 2026-09-06 00:17:36 | 64.23826 | -21.69568 | 93° | 29km/h | 21590m | 6.0m/s | -50.7°C | 1.1% | 0hPa | 0V | 00:00:00 | 00:00:00 | 00:00:00 | |
| DL9RDZ-1 | 2026-09-06 00:17:26 | 64.23816 | -21.69723 | 83° | 27km/h | 21538m | 4.2m/s | -50.6°C | 1.1% | 0hPa | 0V | 00:00:00 | 00:00:00 | 00:00:00 | |
| DL9RDZ-1 | 2026-09-06 00:17:15 | 64.23811 | -21.69879 | 66° | 27km/h | 21480m | 6.0m/s | -50.6°C | 1.1% | 0hPa | 0V | 00:00:00 | 00:00:00 | 00:00:00 | |
| DL9RDZ-1 | 2026-09-06 00:17:04 | 64.23802 | -21.70044 | 72° | 20km/h | 21426m | 4.3m/s | -50.8°C | 1.1% | 0hPa | 0V | 00:00:00 | 00:00:00 | 00:00:00 | |
| DL9RDZ-1 | 2026-09-06 00:16:53 | 64.23800 | -21.70186 | 100° | 24km/h | 21371m | 5.2m/s | -50.7°C | 1.1% | 0hPa | 0V | 00:00:00 | 00:00:00 | 00:00:00 | |
| DL9RDZ-1 | 2026-09-06 00:16:43 | 64.23792 | -21.70332 | 91° | 33km/h | 21318m | 6.2m/s | -51.4°C | 1.2% | 0hPa | 0V | 00:00:00 | 00:00:00 | 00:00:00 | |
| DL9RDZ-1 | 2026-09-06 00:16:32 | 64.23786 | -21.70524 | 85° | 31km/h | 21260m | 5.9m/s | -51.6°C | 1.2% | 0hPa | 0V | 00:00:00 | 00:00:00 | 00:00:00 | |
| DL9RDZ-1 | 2026-09-06 00:16:21 | 64.23779 | -21.70712 | 66° | 27km/h | 21203m | 4.7m/s | -51.8°C | 1.2% | 0hPa | 0V | 00:00:00 | 00:00:00 | 00:00:00 | |
| DL9RDZ-1 | 2026-09-06 00:16:11 | 64.23768 | -21.70881 | 77° | 31km/h | 21153m | 3.9m/s | -52.0°C | 1.2% | 0hPa | 0V | 00:00:00 | 00:00:00 | 00:00:00 | |
| DL9RDZ-1 | 2026-09-06 00:16:00 | 64.23760 | -21.71088 | 81° | 31km/h | 21097m | 5.7m/s | -51.9°C | 1.3% | 0hPa | 0V | 00:00:00 | 00:00:00 | 00:00:00 | |
| DL9RDZ-1 | 2026-09-06 00:15:50 | 64.23739 | -21.71289 | 80° | 35km/h | 21044m | 5.5m/s | -51.8°C | 1.2% | 0hPa | 0V | 00:00:00 | 00:00:00 | 00:00:00 | |
| DL9RDZ-1 | 2026-09-06 00:15:39 | 64.23721 | -21.71493 | 76° | 37km/h | 20985m | 4.4m/s | -51.7°C | 1.3% | 0hPa | 0V | 00:00:00 | 00:00:00 | 00:00:00 | |
| DL9RDZ-1 | 2026-09-06 00:15:29 | 64.23700 | -21.71672 | 68° | 27km/h | 20933m | 5.7m/s | -51.6°C | 1.2% | 0hPa | 0V | 00:00:00 | 00:00:00 | 00:00:00 | |
| DL9RDZ-1 | 2026-09-06 00:15:18 | 64.23684 | -21.71829 | 102° | 29km/h | 20876m | 4.7m/s | -51.3°C | 1.2% | 0hPa | 0V | 00:00:00 | 00:00:00 | 00:00:00 | |
| DL9RDZ-1 | 2026-09-06 00:15:07 | 64.23679 | -21.72005 | 94° | 31km/h | 20822m | 6.2m/s | -51.2°C | 1.2% | 0hPa | 0V | 00:00:00 | 00:00:00 | 00:00:00 | |
| DL9RDZ-1 | 2026-09-06 00:14:57 | 64.23672 | -21.72179 | 89° | 35km/h | 20771m | 5.8m/s | -51.1°C | 1.2% | 0hPa | 0V | 00:00:00 | 00:00:00 | 00:00:00 | |
| DL9RDZ-1 | 2026-09-06 00:14:46 | 64.23661 | -21.72409 | 79° | 35km/h | 20713m | 4.2m/s | -51.0°C | 1.2% | 0hPa | 0V | 00:00:00 | 00:00:00 | 00:00:00 | |
| DL9RDZ-1 | 2026-09-06 00:14:36 | 64.23649 | -21.72618 | 72° | 37km/h | 20662m | 4.8m/s | -51.0°C | 1.2% | 0hPa | 0V | 00:00:00 | 00:00:00 | 00:00:00 | |
| DL9RDZ-1 | 2026-09-06 00:14:25 | 64.23637 | -21.72834 | 81° | 33km/h | 20607m | 4.1m/s | -50.9°C | 1.2% | 0hPa | 0V | 00:00:00 | 00:00:00 | 00:00:00 | |
| DL9RDZ-1 | 2026-09-06 00:14:14 | 64.23634 | -21.73048 | 93° | 38km/h | 20552m | 4.0m/s | -50.8°C | 1.2% | 0hPa | 0V | 00:00:00 | 00:00:00 | 00:00:00 | |
| DL9RDZ-1 | 2026-09-06 00:14:03 | 64.23637 | -21.73281 | 91° | 42km/h | 20494m | 5.7m/s | -51.0°C | 1.2% | 0hPa | 0V | 00:00:00 | 00:00:00 | 00:00:00 | |
| DL9RDZ-1 | 2026-09-06 00:13:52 | 64.23613 | -21.73530 | 76° | 38km/h | 20437m | 4.9m/s | -50.9°C | 1.2% | 0hPa | 0V | 00:00:00 | 00:00:00 | 00:00:00 | |
| DL9RDZ-1 | 2026-09-06 00:13:41 | 64.23582 | -21.73763 | 73° | 33km/h | 20383m | 3.6m/s | -51.0°C | 1.2% | 0hPa | 0V | 00:00:00 | 00:00:00 | 00:00:00 | |
| DL9RDZ-1 | 2026-09-06 00:13:30 | 64.23536 | -21.73977 | 61° | 33km/h | 20328m | 5.3m/s | -50.8°C | 1.2% | 0hPa | 0V | 00:00:00 | 00:00:00 | 00:00:00 | |
| DL9RDZ-1 | 2026-09-06 00:13:09 | 64.23451 | -21.74318 | 71° | 33km/h | 20223m | 4.5m/s | -50.5°C | 1.2% | 0hPa | 0V | 00:00:00 | 00:00:00 | 00:00:00 | |
| DL9RDZ-1 | 2026-09-06 00:12:59 | 64.23416 | -21.74508 | 68° | 31km/h | 20174m | 6.0m/s | -50.4°C | 1.2% | 0hPa | 0V | 00:00:00 | 00:00:00 | 00:00:00 | |
| DL9RDZ-1 | 2026-09-06 00:12:49 | 64.23385 | -21.74675 | 79° | 40km/h | 20121m | 5.0m/s | -50.1°C | 1.2% | 0hPa | 0V | 00:00:00 | 00:00:00 | 00:00:00 | |
| DL9RDZ-1 | 2026-09-06 00:12:38 | 64.23346 | -21.74884 | 78° | 38km/h | 20067m | 4.3m/s | -49.9°C | 1.2% | 0hPa | 0V | 00:00:00 | 00:00:00 | 00:00:00 | |
| DL9RDZ-1 | 2026-09-06 00:12:27 | 64.23306 | -21.75110 | 71° | 38km/h | 20012m | 4.0m/s | -49.7°C | 1.2% | 0hPa | 0V | 00:00:00 | 00:00:00 | 00:00:00 | |
| DL9RDZ-1 | 2026-09-06 00:12:16 | 64.23257 | -21.75342 | 57° | 42km/h | 19955m | 5.5m/s | -49.7°C | 1.2% | 0hPa | 0V | 00:00:00 | 00:00:00 | 00:00:00 | |
| DL9RDZ-1 | 2026-09-06 00:12:05 | 64.23186 | -21.75565 | 54° | 40km/h | 19900m | 4.9m/s | -49.6°C | 1.2% | 0hPa | 0V | 00:00:00 | 00:00:00 | 00:00:00 | |
| DL9RDZ-1 | 2026-09-06 00:11:54 | 64.23125 | -21.75781 | 57° | 42km/h | 19842m | 4.4m/s | -49.7°C | 1.2% | 0hPa | 0V | 00:00:00 | 00:00:00 | 00:00:00 | |
| DL9RDZ-1 | 2026-09-06 00:11:33 | 64.23000 | -21.76116 | 48° | 33km/h | 19734m | 5.8m/s | -49.6°C | 1.2% | 0hPa | 0V | 00:00:00 | 00:00:00 | 00:00:00 | |
| DL9RDZ-1 | 2026-09-06 00:11:23 | 64.22943 | -21.76288 | 52° | 33km/h | 19682m | 5.7m/s | -49.9°C | 1.1% | 0hPa | 0V | 00:00:00 | 00:00:00 | 00:00:00 | |
| DL9RDZ-1 | 2026-09-06 00:11:12 | 64.22887 | -21.76459 | 55° | 35km/h | 19626m | 6.3m/s | -49.9°C | 1.2% | 0hPa | 0V | 00:00:00 | 00:00:00 | 00:00:00 | |
| DL9RDZ-1 | 2026-09-06 00:11:02 | 64.22806 | -21.76614 | 50° | 33km/h | 19572m | 5.6m/s | -49.9°C | 1.2% | 0hPa | 0V | 00:00:00 | 00:00:00 | 00:00:00 | |
| DL9RDZ-1 | 2026-09-06 00:10:51 | 64.22748 | -21.76749 | 43° | 33km/h | 19521m | 3.8m/s | -50.1°C | 1.2% | 0hPa | 0V | 00:00:00 | 00:00:00 | 00:00:00 | |
| DL9RDZ-1 | 2026-09-06 00:10:41 | 64.22714 | -21.76880 | 60° | 29km/h | 19472m | 3.3m/s | -50.0°C | 1.2% | 0hPa | 0V | 00:00:00 | 00:00:00 | 00:00:00 | |
| DL9RDZ-1 | 2026-09-06 00:10:31 | 64.22683 | -21.77001 | 72° | 24km/h | 19425m | 5.5m/s | -50.3°C | 1.2% | 0hPa | 0V | 00:00:00 | 00:00:00 | 00:00:00 | |
| DL9RDZ-1 | 2026-09-06 00:10:20 | 64.22662 | -21.77134 | 67° | 20km/h | 19372m | 5.4m/s | -50.2°C | 1.2% | 0hPa | 0V | 00:00:00 | 00:00:00 | 00:00:00 | |
| DL9RDZ-1 | 2026-09-06 00:10:10 | 64.22644 | -21.77280 | 79° | 26km/h | 19320m | 5.5m/s | -50.4°C | 1.2% | 0hPa | 0V | 00:00:00 | 00:00:00 | 00:00:00 | |
| DL9RDZ-1 | 2026-09-06 00:10:00 | 64.22649 | -21.77468 | 87° | 40km/h | 19269m | 4.2m/s | -50.4°C | 1.2% | 0hPa | 0V | 00:00:00 | 00:00:00 | 00:00:00 | |
| DL9RDZ-1 | 2026-09-06 00:09:49 | 64.22655 | -21.77675 | 98° | 38km/h | 19212m | 4.1m/s | -50.2°C | 1.2% | 0hPa | 0V | 00:00:00 | 00:00:00 | 00:00:00 | |
| DL9RDZ-1 | 2026-09-06 00:09:39 | 64.22652 | -21.77857 | 86° | 31km/h | 19162m | 5.0m/s | -50.1°C | 1.2% | 0hPa | 0V | 00:00:00 | 00:00:00 | 00:00:00 | |
| DL9RDZ-1 | 2026-09-06 00:09:29 | 64.22642 | -21.78042 | 77° | 31km/h | 19110m | 5.3m/s | -50.3°C | 1.2% | 0hPa | 0V | 00:00:00 | 00:00:00 | 00:00:00 | |
| DL9RDZ-1 | 2026-09-06 00:09:18 | 64.22605 | -21.78222 | 58° | 33km/h | 19054m | 5.1m/s | -50.1°C | 1.2% | 0hPa | 0V | 00:00:00 | 00:00:00 | 00:00:00 | |
| DL9RDZ-1 | 2026-09-06 00:09:07 | 64.22556 | -21.78366 | 62° | 27km/h | 18998m | 5.8m/s | -50.4°C | 1.2% | 0hPa | 0V | 00:00:00 | 00:00:00 | 00:00:00 | |
| DL9RDZ-1 | 2026-09-06 00:08:56 | 64.22508 | -21.78478 | 42° | 24km/h | 18941m | 5.6m/s | -50.1°C | 1.2% | 0hPa | 0V | 00:00:00 | 00:00:00 | 00:00:00 | |
| DL9RDZ-1 | 2026-09-06 00:08:45 | 64.22453 | -21.78595 | 54° | 27km/h | 18884m | 5.1m/s | -49.8°C | 1.2% | 0hPa | 0V | 00:00:00 | 00:00:00 | 00:00:00 | |
| DL9RDZ-1 | 2026-09-06 00:08:35 | 64.22410 | -21.78728 | 50° | 33km/h | 18833m | 4.5m/s | -49.7°C | 1.1% | 0hPa | 0V | 00:00:00 | 00:00:00 | 00:00:00 | |
| DL9RDZ-1 | 2026-09-06 00:08:24 | 64.22379 | -21.78888 | 82° | 29km/h | 18778m | 4.6m/s | -49.9°C | 1.2% | 0hPa | 0V | 00:00:00 | 00:00:00 | 00:00:00 | |
| DL9RDZ-1 | 2026-09-06 00:08:13 | 64.22362 | -21.79078 | 84° | 27km/h | 18721m | 4.7m/s | -50.3°C | 1.2% | 0hPa | 0V | 00:00:00 | 00:00:00 | 00:00:00 | |
| DL9RDZ-1 | 2026-09-06 00:08:03 | 64.22347 | -21.79234 | 72° | 22km/h | 18672m | 4.7m/s | -50.1°C | 1.2% | 0hPa | 0V | 00:00:00 | 00:00:00 | 00:00:00 | |
| DL9RDZ-1 | 2026-09-06 00:07:53 | 64.22323 | -21.79340 | 62° | 20km/h | 18621m | 5.4m/s | -49.9°C | 1.2% | 0hPa | 0V | 00:00:00 | 00:00:00 | 00:00:00 | |
| DL9RDZ-1 | 2026-09-06 00:07:42 | 64.22301 | -21.79451 | 54° | 24km/h | 18567m | 4.5m/s | -49.8°C | 1.2% | 0hPa | 0V | 00:00:00 | 00:00:00 | 00:00:00 | |
| DL9RDZ-1 | 2026-09-06 00:07:32 | 64.22263 | -21.79566 | 63° | 24km/h | 18519m | 5.3m/s | -49.5°C | 1.2% | 0hPa | 0V | 00:00:00 | 00:00:00 | 00:00:00 | |
| DL9RDZ-1 | 2026-09-06 00:07:22 | 64.22239 | -21.79697 | 65° | 27km/h | 18471m | 5.1m/s | -49.3°C | 1.2% | 0hPa | 0V | 00:00:00 | 00:00:00 | 00:00:00 | |
| DL9RDZ-1 | 2026-09-06 00:07:11 | 64.22226 | -21.79856 | 92° | 33km/h | 18415m | 5.6m/s | -49.3°C | 1.2% | 0hPa | 0V | 00:00:00 | 00:00:00 | 00:00:00 | |
| DL9RDZ-1 | 2026-09-06 00:07:01 | 64.22214 | -21.80012 | 85° | 26km/h | 18366m | 4.8m/s | -49.2°C | 1.2% | 0hPa | 0V | 00:00:00 | 00:00:00 | 00:00:00 | |
| DL9RDZ-1 | 2026-09-06 00:06:51 | 64.22192 | -21.80161 | 64° | 26km/h | 18318m | 5.0m/s | -49.0°C | 1.2% | 0hPa | 0V | 00:00:00 | 00:00:00 | 00:00:00 | |
| DL9RDZ-1 | 2026-09-06 00:06:40 | 64.22172 | -21.80329 | 80° | 29km/h | 18264m | 5.4m/s | -49.0°C | 1.2% | 0hPa | 0V | 00:00:00 | 00:00:00 | 00:00:00 | |
| DL9RDZ-1 | 2026-09-06 00:06:30 | 64.22162 | -21.80491 | 92° | 31km/h | 18214m | 5.0m/s | -48.6°C | 1.1% | 0hPa | 0V | 00:00:00 | 00:00:00 | 00:00:00 | |
| DL9RDZ-1 | 2026-09-06 00:06:21 | 64.22146 | -21.80658 | 67° | 31km/h | 18165m | 4.4m/s | -48.5°C | 1.2% | 0hPa | 0V | 00:00:00 | 00:00:00 | 00:00:00 | |
| DL9RDZ-1 | 2026-09-06 00:06:11 | 64.22124 | -21.80845 | 75° | 33km/h | 18118m | 4.9m/s | -48.4°C | 1.1% | 0hPa | 0V | 00:00:00 | 00:00:00 | 00:00:00 | |
| DL9RDZ-1 | 2026-09-06 00:05:59 | 64.22100 | -21.81045 | 87° | 35km/h | 18062m | 4.6m/s | -48.6°C | 1.2% | 0hPa | 0V | 00:00:00 | 00:00:00 | 00:00:00 | |
| DL9RDZ-1 | 2026-09-06 00:05:50 | 64.22078 | -21.81251 | 79° | 38km/h | 18015m | 4.5m/s | -48.6°C | 1.2% | 0hPa | 0V | 00:00:00 | 00:00:00 | 00:00:00 | |
| DL9RDZ-1 | 2026-09-06 00:05:38 | 64.22060 | -21.81508 | 84° | 42km/h | 17962m | 4.2m/s | -48.9°C | 1.2% | 0hPa | 0V | 00:00:00 | 00:00:00 | 00:00:00 | |
| DL9RDZ-1 | 2026-09-06 00:05:28 | 64.22023 | -21.81748 | 77° | 37km/h | 17910m | 4.8m/s | -49.3°C | 1.2% | 0hPa | 0V | 00:00:00 | 00:00:00 | 00:00:00 | |
| DL9RDZ-1 | 2026-09-06 00:05:18 | 64.21999 | -21.81942 | 75° | 33km/h | 17863m | 4.1m/s | -49.3°C | 1.2% | 0hPa | 0V | 00:00:00 | 00:00:00 | 00:00:00 | |
| DL9RDZ-1 | 2026-09-06 00:05:07 | 64.21964 | -21.82128 | 59° | 29km/h | 17811m | 5.4m/s | -49.3°C | 1.2% | 0hPa | 0V | 00:00:00 | 00:00:00 | 00:00:00 | |
| DL9RDZ-1 | 2026-09-06 00:04:55 | 64.21931 | -21.82275 | 68° | 27km/h | 17757m | 4.2m/s | -49.0°C | 1.2% | 0hPa | 0V | 00:00:00 | 00:00:00 | 00:00:00 | |
| DL9RDZ-1 | 2026-09-06 00:04:44 | 64.21915 | -21.82438 | 75° | 26km/h | 17705m | 3.9m/s | -48.6°C | 1.2% | 0hPa | 0V | 00:00:00 | 00:00:00 | 00:00:00 | |
| DL9RDZ-1 | 2026-09-06 00:04:34 | 64.21905 | -21.82604 | 87° | 27km/h | 17657m | 3.7m/s | -48.5°C | 1.2% | 0hPa | 0V | 00:00:00 | 00:00:00 | 00:00:00 | |
| DL9RDZ-1 | 2026-09-06 00:04:23 | 64.21892 | -21.82805 | 94° | 38km/h | 17606m | 4.2m/s | -48.9°C | 1.2% | 0hPa | 0V | 00:00:00 | 00:00:00 | 00:00:00 | |
| DL9RDZ-1 | 2026-09-06 00:04:13 | 64.21880 | -21.83015 | 76° | 35km/h | 17560m | 3.2m/s | -48.7°C | 1.2% | 0hPa | 0V | 00:00:00 | 00:00:00 | 00:00:00 | |
| DL9RDZ-1 | 2026-09-06 00:04:04 | 64.21871 | -21.83223 | 92° | 31km/h | 17518m | 4.1m/s | -48.9°C | 1.2% | 0hPa | 0V | 00:00:00 | 00:00:00 | 00:00:00 | |
| DL9RDZ-1 | 2026-09-06 00:03:54 | 64.21847 | -21.83405 | 70° | 38km/h | 17472m | 4.2m/s | -49.3°C | 1.2% | 0hPa | 0V | 00:00:00 | 00:00:00 | 00:00:00 | |
| DL9RDZ-1 | 2026-09-06 00:03:42 | 64.21799 | -21.83604 | 64° | 38km/h | 17424m | 3.5m/s | -49.3°C | 1.2% | 0hPa | 0V | 00:00:00 | 00:00:00 | 00:00:00 | |
| DL9RDZ-1 | 2026-09-06 00:03:32 | 64.21765 | -21.83784 | 70° | 33km/h | 17378m | 3.9m/s | -49.6°C | 1.2% | 0hPa | 0V | 00:00:00 | 00:00:00 | 00:00:00 | |
| DL9RDZ-1 | 2026-09-06 00:03:24 | 64.21730 | -21.84028 | 69° | 35km/h | 17329m | 4.5m/s | -49.7°C | 1.3% | 0hPa | 0V | 00:00:00 | 00:00:00 | 00:00:00 | |
| DL9RDZ-1 | 2026-09-06 00:03:16 | 64.21687 | -21.84267 | 68° | 42km/h | 17279m | 4.5m/s | -49.5°C | 1.2% | 0hPa | 0V | 00:00:00 | 00:00:00 | 00:00:00 | |
| DL9RDZ-1 | 2026-09-06 00:03:08 | 64.21645 | -21.84489 | 67° | 46km/h | 17234m | 3.8m/s | -49.3°C | 1.2% | 0hPa | 0V | 00:00:00 | 00:00:00 | 00:00:00 | |
| DL9RDZ-1 | 2026-09-06 00:02:58 | 64.21585 | -21.84724 | 59° | 42km/h | 17184m | 5.1m/s | -49.3°C | 1.2% | 0hPa | 0V | 00:00:00 | 00:00:00 | 00:00:00 | |
| DL9RDZ-1 | 2026-09-06 00:02:49 | 64.21532 | -21.84909 | 50° | 40km/h | 17141m | 4.3m/s | -49.4°C | 1.2% | 0hPa | 0V | 00:00:00 | 00:00:00 | 00:00:00 | |
| DL9RDZ-1 | 2026-09-06 00:02:32 | 64.21463 | -21.85108 | 53° | 40km/h | 17090m | 3.9m/s | -49.3°C | 1.2% | 0hPa | 0V | 00:00:00 | 00:00:00 | 00:00:00 | |
| DL9RDZ-1 | 2026-09-06 00:02:18 | 64.21393 | -21.85316 | 61° | 42km/h | 17040m | 5.0m/s | -49.4°C | 1.2% | 0hPa | 0V | 00:00:00 | 00:00:00 | 00:00:00 | |
| DL9RDZ-1 | 2026-09-06 00:02:07 | 64.21345 | -21.85511 | 54° | 35km/h | 16994m | 4.6m/s | -49.7°C | 1.2% | 0hPa | 0V | 00:00:00 | 00:00:00 | 00:00:00 | |
| DL9RDZ-1 | 2026-09-06 00:01:59 | 64.21296 | -21.85713 | 60° | 35km/h | 16943m | 3.5m/s | -50.1°C | 1.3% | 0hPa | 0V | 00:00:00 | 00:00:00 | 00:00:00 | |
| DL9RDZ-1 | 2026-09-06 00:01:50 | 64.21255 | -21.85863 | 64° | 26km/h | 16896m | 4.3m/s | -49.8°C | 1.3% | 0hPa | 0V | 00:00:00 | 00:00:00 | 00:00:00 | |
| DL9RDZ-1 | 2026-09-06 00:01:37 | 64.21217 | -21.86000 | 63° | 22km/h | 16843m | 5.4m/s | -49.5°C | 1.2% | 0hPa | 0V | 00:00:00 | 00:00:00 | 00:00:00 | |
| DL9RDZ-1 | 2026-09-06 00:01:28 | 64.21182 | -21.86108 | 48° | 22km/h | 16794m | 4.7m/s | -49.7°C | 1.2% | 0hPa | 0V | 00:00:00 | 00:00:00 | 00:00:00 | |
| DL9RDZ-1 | 2026-09-06 00:01:17 | 64.21158 | -21.86202 | 60° | 13km/h | 16743m | 4.0m/s | -49.9°C | 1.3% | 0hPa | 0V | 00:00:00 | 00:00:00 | 00:00:00 | |
| DL9RDZ-1 | 2026-09-06 00:01:04 | 64.21156 | -21.86280 | 93° | 13km/h | 16690m | 4.5m/s | -49.5°C | 1.3% | 0hPa | 0V | 00:00:00 | 00:00:00 | 00:00:00 | |
| DL9RDZ-1 | 2026-09-06 00:00:46 | 64.21126 | -21.86445 | 46° | 18km/h | 16588m | 4.7m/s | -49.0°C | 1.2% | 0hPa | 0V | 00:00:00 | 00:00:00 | 00:00:00 | |
| DL9RDZ-1 | 2026-09-06 00:00:32 | 64.21104 | -21.86546 | 70° | 26km/h | 16540m | 5.6m/s | -48.8°C | 1.2% | 0hPa | 0V | 00:00:00 | 00:00:00 | 00:00:00 | |
| DL9RDZ-1 | 2026-09-06 00:00:22 | 64.21069 | -21.86701 | 74° | 29km/h | 16485m | 3.9m/s | -48.9°C | 1.2% | 0hPa | 0V | 00:00:00 | 00:00:00 | 00:00:00 | |
| DL9RDZ-1 | 2026-09-06 00:00:11 | 64.21037 | -21.86873 | 67° | 33km/h | 16439m | 4.3m/s | -49.1°C | 1.2% | 0hPa | 0V | 00:00:00 | 00:00:00 | 00:00:00 | |
| DL9RDZ-1 | 2026-09-06 00:00:00 | 64.20999 | -21.87051 | 68° | 27km/h | 16389m | 5.1m/s | -49.2°C | 1.3% | 0hPa | 0V | 00:00:00 | 00:00:00 | 00:00:00 | |
| DL9RDZ-1 | 2026-09-05 23:59:49 | 64.20968 | -21.87199 | 68° | 22km/h | 16336m | 3.6m/s | -49.5°C | 1.3% | 0hPa | 0V | 00:00:00 | 00:00:00 | 00:00:00 | |
| DL9RDZ-1 | 2026-09-05 23:59:39 | 64.20943 | -21.87339 | 72° | 27km/h | 16289m | 4.2m/s | -49.4°C | 1.3% | 0hPa | 0V | 00:00:00 | 00:00:00 | 00:00:00 | |
| DL9RDZ-1 | 2026-09-05 23:59:28 | 64.20901 | -21.87506 | 51° | 31km/h | 16240m | 5.2m/s | -49.5°C | 1.3% | 0hPa | 0V | 00:00:00 | 00:00:00 | 00:00:00 | |
| DL9RDZ-1 | 2026-09-05 23:59:18 | 64.20847 | -21.87661 | 43° | 40km/h | 16193m | 3.7m/s | -49.8°C | 1.3% | 0hPa | 0V | 00:00:00 | 00:00:00 | 00:00:00 | |
| DL9RDZ-1 | 2026-09-05 23:59:06 | 64.20788 | -21.87813 | 55° | 35km/h | 16145m | 3.6m/s | -49.6°C | 1.3% | 0hPa | 0V | 00:00:00 | 00:00:00 | 00:00:00 | |
| DL9RDZ-1 | 2026-09-05 23:58:56 | 64.20729 | -21.87946 | 49° | 31km/h | 16101m | 3.3m/s | -49.4°C | 1.3% | 0hPa | 0V | 00:00:00 | 00:00:00 | 00:00:00 | |
| DL9RDZ-1 | 2026-09-05 23:58:45 | 64.20674 | -21.88102 | 41° | 35km/h | 16053m | 5.0m/s | -49.4°C | 1.3% | 0hPa | 0V | 00:00:00 | 00:00:00 | 00:00:00 | |
| DL9RDZ-1 | 2026-09-05 23:58:34 | 64.20621 | -21.88275 | 52° | 33km/h | 16005m | 4.0m/s | -49.3°C | 1.3% | 0hPa | 0V | 00:00:00 | 00:00:00 | 00:00:00 | |
| DL9RDZ-1 | 2026-09-05 23:58:23 | 64.20567 | -21.88443 | 60° | 29km/h | 15955m | 4.8m/s | -49.0°C | 1.3% | 0hPa | 0V | 00:00:00 | 00:00:00 | 00:00:00 | |
| DL9RDZ-1 | 2026-09-05 23:58:12 | 64.20498 | -21.88585 | 41° | 37km/h | 15907m | 4.6m/s | -48.9°C | 1.3% | 0hPa | 0V | 00:00:00 | 00:00:00 | 00:00:00 | |
| DL9RDZ-1 | 2026-09-05 23:58:01 | 64.20438 | -21.88735 | 55° | 29km/h | 15858m | 5.2m/s | -48.8°C | 1.3% | 0hPa | 0V | 00:00:00 | 00:00:00 | 00:00:00 | |
| DL9RDZ-1 | 2026-09-05 23:57:51 | 64.20394 | -21.88867 | 55° | 29km/h | 15812m | 3.7m/s | -49.3°C | 1.3% | 0hPa | 0V | 00:00:00 | 00:00:00 | 00:00:00 | |
| DL9RDZ-1 | 2026-09-05 23:57:42 | 64.20361 | -21.89005 | 66° | 29km/h | 15769m | 4.2m/s | -49.8°C | 1.3% | 0hPa | 0V | 00:00:00 | 00:00:00 | 00:00:00 | |
| DL9RDZ-1 | 2026-09-05 23:57:28 | 64.20329 | -21.89179 | 64° | 29km/h | 15709m | 4.4m/s | -50.1°C | 1.4% | 0hPa | 0V | 00:00:00 | 00:00:00 | 00:00:00 | |
| DL9RDZ-1 | 2026-09-05 23:57:15 | 64.20304 | -21.89374 | 76° | 35km/h | 15653m | 3.6m/s | -49.8°C | 1.4% | 0hPa | 0V | 00:00:00 | 00:00:00 | 00:00:00 | |
| DL9RDZ-1 | 2026-09-05 23:57:05 | 64.20296 | -21.89569 | 78° | 33km/h | 15605m | 4.4m/s | -49.6°C | 1.4% | 0hPa | 0V | 00:00:00 | 00:00:00 | 00:00:00 | |
| DL9RDZ-1 | 2026-09-05 23:56:55 | 64.20284 | -21.89762 | 89° | 31km/h | 15562m | 3.5m/s | -49.4°C | 1.4% | 0hPa | 0V | 00:00:00 | 00:00:00 | 00:00:00 | |
| DL9RDZ-1 | 2026-09-05 23:56:43 | 64.20271 | -21.90025 | 81° | 40km/h | 15509m | 3.4m/s | -49.3°C | 1.3% | 0hPa | 0V | 00:00:00 | 00:00:00 | 00:00:00 | |
| DL9RDZ-1 | 2026-09-05 23:56:31 | 64.20243 | -21.90276 | 71° | 42km/h | 15461m | 5.3m/s | -49.0°C | 1.3% | 0hPa | 0V | 00:00:00 | 00:00:00 | 00:00:00 | |
| DL9RDZ-1 | 2026-09-05 23:56:21 | 64.20208 | -21.90494 | 65° | 38km/h | 15414m | 4.4m/s | -49.2°C | 1.3% | 0hPa | 0V | 00:00:00 | 00:00:00 | 00:00:00 | |
| DL9RDZ-1 | 2026-09-05 23:56:10 | 64.20160 | -21.90725 | 67° | 38km/h | 15364m | 5.4m/s | -49.2°C | 1.3% | 0hPa | 0V | 00:00:00 | 00:00:00 | 00:00:00 | |
| DL9RDZ-1 | 2026-09-05 23:56:00 | 64.20116 | -21.90921 | 66° | 42km/h | 15317m | 5.6m/s | -49.3°C | 1.3% | 0hPa | 0V | 00:00:00 | 00:00:00 | 00:00:00 | |
| DL9RDZ-1 | 2026-09-05 23:55:49 | 64.20076 | -21.91151 | 65° | 35km/h | 15265m | 4.4m/s | -49.8°C | 1.4% | 0hPa | 0V | 00:00:00 | 00:00:00 | 00:00:00 | |
| DL9RDZ-1 | 2026-09-05 23:55:38 | 64.20052 | -21.91376 | 74° | 35km/h | 15211m | 4.3m/s | -49.7°C | 1.4% | 0hPa | 0V | 00:00:00 | 00:00:00 | 00:00:00 | |
| DL9RDZ-1 | 2026-09-05 23:55:00 | 64.19855 | -21.92262 | 41° | 46km/h | 15020m | 4.9m/s | -50.4°C | 1.5% | 0hPa | 0V | 00:00:00 | 00:00:00 | 00:00:00 | |
| DL9RDZ-1 | 2026-09-05 23:54:50 | 64.19761 | -21.92426 | 38° | 46km/h | 14972m | 4.5m/s | -50.4°C | 1.5% | 0hPa | 0V | 00:00:00 | 00:00:00 | 00:00:00 | |
| DL9RDZ-1 | 2026-09-05 23:54:41 | 64.19674 | -21.92583 | 39° | 44km/h | 14923m | 4.2m/s | -50.3°C | 1.5% | 0hPa | 0V | 00:00:00 | 00:00:00 | 00:00:00 | |
| DL9RDZ-1 | 2026-09-05 23:54:15 | 64.19530 | -21.93036 | 66° | 38km/h | 14792m | 5.2m/s | -49.5°C | 1.4% | 0hPa | 0V | 00:00:00 | 00:00:00 | 00:00:00 | |
| DL9RDZ-1 | 2026-09-05 23:54:03 | 64.19496 | -21.93225 | 61° | 27km/h | 14737m | 3.7m/s | -49.2°C | 1.4% | 0hPa | 0V | 00:00:00 | 00:00:00 | 00:00:00 | |
| DL9RDZ-1 | 2026-09-05 23:53:51 | 64.19468 | -21.93406 | 75° | 27km/h | 14680m | 4.3m/s | -49.0°C | 1.4% | 0hPa | 0V | 00:00:00 | 00:00:00 | 00:00:00 | |
| DL9RDZ-1 | 2026-09-05 23:53:31 | 64.19413 | -21.93806 | 76° | 37km/h | 14571m | 5.8m/s | -48.1°C | 1.4% | 0hPa | 0V | 00:00:00 | 00:00:00 | 00:00:00 | |
| DL9RDZ-1 | 2026-09-05 23:53:19 | 64.19389 | -21.94028 | 71° | 35km/h | 14517m | 3.7m/s | -47.7°C | 1.3% | 0hPa | 0V | 00:00:00 | 00:00:00 | 00:00:00 | |
| DL9RDZ-1 | 2026-09-05 23:53:09 | 64.19366 | -21.94227 | 74° | 35km/h | 14472m | 3.8m/s | -47.3°C | 1.3% | 0hPa | 0V | 00:00:00 | 00:00:00 | 00:00:00 | |
| DL9RDZ-1 | 2026-09-05 23:52:58 | 64.19339 | -21.94456 | 76° | 40km/h | 14420m | 3.8m/s | -47.0°C | 1.3% | 0hPa | 0V | 00:00:00 | 00:00:00 | 00:00:00 | |
| DL9RDZ-1 | 2026-09-05 23:52:48 | 64.19310 | -21.94695 | 74° | 40km/h | 14371m | 3.6m/s | -47.2°C | 1.3% | 0hPa | 0V | 00:00:00 | 00:00:00 | 00:00:00 | |
| DL9RDZ-1 | 2026-09-05 23:52:35 | 64.19288 | -21.94947 | 71° | 42km/h | 14320m | 4.6m/s | -47.4°C | 1.3% | 0hPa | 0V | 00:00:00 | 00:00:00 | 00:00:00 | |
| DL9RDZ-1 | 2026-09-05 23:52:23 | 64.19247 | -21.95216 | 53° | 38km/h | 14264m | 3.8m/s | -48.3°C | 1.4% | 0hPa | 0V | 00:00:00 | 00:00:00 | 00:00:00 | |
| DL9RDZ-1 | 2026-09-05 23:52:14 | 64.19205 | -21.95399 | 72° | 42km/h | 14220m | 3.9m/s | -48.7°C | 1.4% | 0hPa | 0V | 00:00:00 | 00:00:00 | 00:00:00 | |
| DL9RDZ-1 | 2026-09-05 23:52:03 | 64.19164 | -21.95636 | 69° | 40km/h | 14175m | 3.8m/s | -48.5°C | 1.4% | 0hPa | 0V | 00:00:00 | 00:00:00 | 00:00:00 | |
| DL9RDZ-1 | 2026-09-05 23:51:53 | 64.19112 | -21.95848 | 63° | 42km/h | 14133m | 4.7m/s | -48.2°C | 1.4% | 0hPa | 0V | 00:00:00 | 00:00:00 | 00:00:00 | |
| DL9RDZ-1 | 2026-09-05 23:51:42 | 64.19054 | -21.96075 | 54° | 42km/h | 14085m | 4.2m/s | -47.8°C | 1.4% | 0hPa | 0V | 00:00:00 | 00:00:00 | 00:00:00 | |
| DL9RDZ-1 | 2026-09-05 23:51:32 | 64.19000 | -21.96289 | 53° | 40km/h | 14038m | 3.9m/s | -47.5°C | 1.4% | 0hPa | 0V | 00:00:00 | 00:00:00 | 00:00:00 | |
| DL9RDZ-1 | 2026-09-05 23:51:22 | 64.18938 | -21.96511 | 56° | 46km/h | 13993m | 4.1m/s | -47.3°C | 1.3% | 0hPa | 0V | 00:00:00 | 00:00:00 | 00:00:00 | |
| DL9RDZ-1 | 2026-09-05 23:51:11 | 64.18853 | -21.96749 | 50° | 51km/h | 13943m | 3.8m/s | -48.0°C | 1.4% | 0hPa | 0V | 00:00:00 | 00:00:00 | 00:00:00 | |
| DL9RDZ-1 | 2026-09-05 23:51:01 | 64.18759 | -21.96923 | 41° | 47km/h | 13898m | 4.5m/s | -48.1°C | 1.4% | 0hPa | 0V | 00:00:00 | 00:00:00 | 00:00:00 | |
| DL9RDZ-1 | 2026-09-05 23:50:50 | 64.18670 | -21.97132 | 48° | 42km/h | 13851m | 5.0m/s | -48.5°C | 1.5% | 0hPa | 0V | 00:00:00 | 00:00:00 | 00:00:00 | |
| DL9RDZ-1 | 2026-09-05 23:50:39 | 64.18598 | -21.97357 | 54° | 42km/h | 13803m | 4.3m/s | -48.5°C | 1.5% | 0hPa | 0V | 00:00:00 | 00:00:00 | 00:00:00 | |
| DL9RDZ-1 | 2026-09-05 23:50:29 | 64.18532 | -21.97544 | 49° | 47km/h | 13757m | 3.9m/s | -48.3°C | 1.4% | 0hPa | 0V | 00:00:00 | 00:00:00 | 00:00:00 | |
| DL9RDZ-1 | 2026-09-05 23:50:18 | 64.18449 | -21.97739 | 42° | 40km/h | 13709m | 5.4m/s | -48.1°C | 1.4% | 0hPa | 0V | 00:00:00 | 00:00:00 | 00:00:00 | |
| DL9RDZ-1 | 2026-09-05 23:50:08 | 64.18378 | -21.97929 | 44° | 42km/h | 13657m | 5.2m/s | -48.3°C | 1.5% | 0hPa | 0V | 00:00:00 | 00:00:00 | 00:00:00 | |
| DL9RDZ-1 | 2026-09-05 23:49:58 | 64.18293 | -21.98108 | 44° | 46km/h | 13612m | 4.1m/s | -48.2°C | 1.5% | 0hPa | 0V | 00:00:00 | 00:00:00 | 00:00:00 | |
| DL9RDZ-1 | 2026-09-05 23:49:47 | 64.18217 | -21.98286 | 44° | 42km/h | 13568m | 3.5m/s | -49.0°C | 1.5% | 0hPa | 0V | 00:00:00 | 00:00:00 | 00:00:00 | |
| DL9RDZ-1 | 2026-09-05 23:49:37 | 64.18161 | -21.98503 | 65° | 42km/h | 13523m | 4.0m/s | -49.3°C | 1.5% | 0hPa | 0V | 00:00:00 | 00:00:00 | 00:00:00 | |
| DL9RDZ-1 | 2026-09-05 23:49:26 | 64.18089 | -21.98719 | 60° | 44km/h | 13473m | 4.9m/s | -49.7°C | 1.6% | 0hPa | 0V | 00:00:00 | 00:00:00 | 00:00:00 | |
| DL9RDZ-1 | 2026-09-05 23:49:16 | 64.18027 | -21.98895 | 50° | 38km/h | 13428m | 3.9m/s | -49.6°C | 1.6% | 0hPa | 0V | 00:00:00 | 00:00:00 | 00:00:00 | |
| DL9RDZ-1 | 2026-09-05 23:49:05 | 64.17966 | -21.99090 | 60° | 38km/h | 13378m | 4.6m/s | -49.5°C | 1.6% | 0hPa | 0V | 00:00:00 | 00:00:00 | 00:00:00 | |
| DL9RDZ-1 | 2026-09-05 23:48:55 | 64.17912 | -21.99289 | 60° | 47km/h | 13332m | 4.1m/s | -49.8°C | 1.6% | 0hPa | 0V | 00:00:00 | 00:00:00 | 00:00:00 | |
| DL9RDZ-1 | 2026-09-05 23:48:44 | 64.17855 | -21.99533 | 65° | 42km/h | 13282m | 3.5m/s | -50.3°C | 1.7% | 0hPa | 0V | 00:00:00 | 00:00:00 | 00:00:00 | |
| DL9RDZ-1 | 2026-09-05 23:48:34 | 64.17805 | -21.99758 | 61° | 42km/h | 13235m | 5.3m/s | -50.2°C | 1.7% | 0hPa | 0V | 00:00:00 | 00:00:00 | 00:00:00 | |
| DL9RDZ-1 | 2026-09-05 23:48:23 | 64.17751 | -22.00001 | 62° | 40km/h | 13186m | 3.7m/s | -49.9°C | 1.7% | 0hPa | 0V | 00:00:00 | 00:00:00 | 00:00:00 | |
| DL9RDZ-1 | 2026-09-05 23:48:13 | 64.17708 | -22.00219 | 62° | 42km/h | 13140m | 4.8m/s | -49.7°C | 1.6% | 0hPa | 0V | 00:00:00 | 00:00:00 | 00:00:00 | |
| DL9RDZ-1 | 2026-09-05 23:48:02 | 64.17667 | -22.00486 | 75° | 46km/h | 13089m | 4.8m/s | -49.8°C | 1.7% | 0hPa | 0V | 00:00:00 | 00:00:00 | 00:00:00 | |
| DL9RDZ-1 | 2026-09-05 23:47:51 | 64.17615 | -22.00760 | 63° | 47km/h | 13035m | 5.9m/s | -49.5°C | 1.6% | 0hPa | 0V | 00:00:00 | 00:00:00 | 00:00:00 | |
| DL9RDZ-1 | 2026-09-05 23:47:41 | 64.17558 | -22.01021 | 64° | 53km/h | 12985m | 4.7m/s | -49.3°C | 1.6% | 0hPa | 0V | 00:00:00 | 00:00:00 | 00:00:00 | |
| DL9RDZ-1 | 2026-09-05 23:47:30 | 64.17489 | -22.01312 | 55° | 51km/h | 12934m | 3.8m/s | -49.4°C | 1.7% | 0hPa | 0V | 00:00:00 | 00:00:00 | 00:00:00 | |
| DL9RDZ-1 | 2026-09-05 23:47:19 | 64.17417 | -22.01582 | 58° | 51km/h | 12883m | 3.9m/s | -49.2°C | 1.7% | 0hPa | 0V | 00:00:00 | 00:00:00 | 00:00:00 | |
| DL9RDZ-1 | 2026-09-05 23:47:08 | 64.17336 | -22.01845 | 56° | 47km/h | 12835m | 4.8m/s | -49.2°C | 1.6% | 0hPa | 0V | 00:00:00 | 00:00:00 | 00:00:00 | |
| DL9RDZ-1 | 2026-09-05 23:46:57 | 64.17261 | -22.02086 | 56° | 51km/h | 12783m | 5.0m/s | -49.0°C | 1.7% | 0hPa | 0V | 00:00:00 | 00:00:00 | 00:00:00 | |
| DL9RDZ-1 | 2026-09-05 23:46:46 | 64.17188 | -22.02340 | 61° | 47km/h | 12735m | 4.0m/s | -48.9°C | 1.7% | 0hPa | 0V | 00:00:00 | 00:00:00 | 00:00:00 | |
| DL9RDZ-1 | 2026-09-05 23:46:35 | 64.17109 | -22.02608 | 56° | 51km/h | 12685m | 3.7m/s | -48.8°C | 1.7% | 0hPa | 0V | 00:00:00 | 00:00:00 | 00:00:00 | |
| DL9RDZ-1 | 2026-09-05 23:46:25 | 64.17037 | -22.02849 | 53° | 51km/h | 12642m | 4.1m/s | -48.7°C | 1.7% | 0hPa | 0V | 00:00:00 | 00:00:00 | 00:00:00 | |
| DL9RDZ-1 | 2026-09-05 23:46:15 | 64.16961 | -22.03075 | 54° | 49km/h | 12598m | 4.3m/s | -48.4°C | 1.7% | 0hPa | 0V | 00:00:00 | 00:00:00 | 00:00:00 | |
| DL9RDZ-1 | 2026-09-05 23:46:05 | 64.16888 | -22.03320 | 54° | 53km/h | 12556m | 4.0m/s | -48.5°C | 1.7% | 0hPa | 0V | 00:00:00 | 00:00:00 | 00:00:00 | |
| DL9RDZ-1 | 2026-09-05 23:45:55 | 64.16812 | -22.03585 | 61° | 57km/h | 12512m | 3.5m/s | -48.8°C | 1.8% | 0hPa | 0V | 00:00:00 | 00:00:00 | 00:00:00 | |
| DL9RDZ-1 | 2026-09-05 23:45:44 | 64.16725 | -22.03884 | 58° | 55km/h | 12465m | 3.5m/s | -49.0°C | 1.8% | 0hPa | 0V | 00:00:00 | 00:00:00 | 00:00:00 | |
| DL9RDZ-1 | 2026-09-05 23:45:33 | 64.16633 | -22.04185 | 59° | 55km/h | 12420m | 3.1m/s | -49.4°C | 1.9% | 0hPa | 0V | 00:00:00 | 00:00:00 | 00:00:00 | |
| DL9RDZ-1 | 2026-09-05 23:45:22 | 64.16560 | -22.04469 | 55° | 42km/h | 12372m | 3.5m/s | -49.4°C | 1.8% | 0hPa | 0V | 00:00:00 | 00:00:00 | 00:00:00 | |
| DL9RDZ-1 | 2026-09-05 23:45:12 | 64.16497 | -22.04684 | 57° | 44km/h | 12329m | 3.7m/s | -49.2°C | 1.9% | 0hPa | 0V | 00:00:00 | 00:00:00 | 00:00:00 | |
| DL9RDZ-1 | 2026-09-05 23:45:02 | 64.16434 | -22.04930 | 63° | 46km/h | 12281m | 5.4m/s | -48.9°C | 1.8% | 0hPa | 0V | 00:00:00 | 00:00:00 | 00:00:00 | |
| DL9RDZ-1 | 2026-09-05 23:44:50 | 64.16376 | -22.05174 | 65° | 42km/h | 12235m | 3.5m/s | -48.7°C | 1.8% | 0hPa | 0V | 00:00:00 | 00:00:00 | 00:00:00 | |
| DL9RDZ-1 | 2026-09-05 23:44:39 | 64.16322 | -22.05433 | 66° | 47km/h | 12190m | 3.1m/s | -48.5°C | 1.8% | 0hPa | 0V | 00:00:00 | 00:00:00 | 00:00:00 | |
| DL9RDZ-1 | 2026-09-05 23:44:29 | 64.16282 | -22.05678 | 73° | 42km/h | 12148m | 4.5m/s | -48.6°C | 1.9% | 0hPa | 0V | 00:00:00 | 00:00:00 | 00:00:00 | |
| DL9RDZ-1 | 2026-09-05 23:44:18 | 64.16245 | -22.05966 | 80° | 49km/h | 12100m | 5.5m/s | -48.3°C | 1.9% | 0hPa | 0V | 00:00:00 | 00:00:00 | 00:00:00 | |
| DL9RDZ-1 | 2026-09-05 23:44:08 | 64.16199 | -22.06260 | 69° | 58km/h | 12048m | 3.6m/s | -48.0°C | 2.0% | 0hPa | 0V | 00:00:00 | 00:00:00 | 00:00:00 | |
| DL9RDZ-1 | 2026-09-05 23:43:57 | 64.16145 | -22.06570 | 61° | 53km/h | 11999m | 4.6m/s | -48.7°C | 2.3% | 0hPa | 0V | 00:00:00 | 00:00:00 | 00:00:00 | |
| DL9RDZ-1 | 2026-09-05 23:43:46 | 64.16058 | -22.06916 | 60° | 66km/h | 11947m | 3.5m/s | -48.7°C | 2.5% | 0hPa | 0V | 00:00:00 | 00:00:00 | 00:00:00 | |
| DL9RDZ-1 | 2026-09-05 23:43:36 | 64.15972 | -22.07249 | 64° | 69km/h | 11904m | 4.0m/s | -48.9°C | 2.7% | 0hPa | 0V | 00:00:00 | 00:00:00 | 00:00:00 | |
| DL9RDZ-1 | 2026-09-05 23:43:25 | 64.15876 | -22.07661 | 62° | 69km/h | 11854m | 5.6m/s | -48.8°C | 2.8% | 0hPa | 0V | 00:00:00 | 00:00:00 | 00:00:00 | |
| DL9RDZ-1 | 2026-09-05 23:43:14 | 64.15773 | -22.08065 | 57° | 69km/h | 11808m | 5.2m/s | -49.8°C | 3.1% | 0hPa | 0V | 00:00:00 | 00:00:00 | 00:00:00 | |
| DL9RDZ-1 | 2026-09-05 23:43:03 | 64.15650 | -22.08459 | 57° | 77km/h | 11761m | 3.7m/s | -50.0°C | 3.2% | 0hPa | 0V | 00:00:00 | 00:00:00 | 00:00:00 | |
| DL9RDZ-1 | 2026-09-05 23:42:53 | 64.15540 | -22.08808 | 55° | 78km/h | 11719m | 4.5m/s | -49.9°C | 3.4% | 0hPa | 0V | 00:00:00 | 00:00:00 | 00:00:00 | |
| DL9RDZ-1 | 2026-09-05 23:42:43 | 64.15427 | -22.09160 | 54° | 73km/h | 11676m | 4.2m/s | -50.2°C | 3.9% | 0hPa | 0V | 00:00:00 | 00:00:00 | 00:00:00 | |
| DL9RDZ-1 | 2026-09-05 23:42:32 | 64.15301 | -22.09541 | 50° | 73km/h | 11629m | 4.4m/s | -50.8°C | 4.9% | 0hPa | 0V | 00:00:00 | 00:00:00 | 00:00:00 | |
| DL9RDZ-1 | 2026-09-05 23:42:20 | 64.15153 | -22.09937 | 52° | 82km/h | 11579m | 4.0m/s | -52.3°C | 6.7% | 0hPa | 0V | 00:00:00 | 00:00:00 | 00:00:00 | |
| DL9RDZ-1 | 2026-09-05 23:42:03 | 64.14934 | -22.10505 | 53° | 78km/h | 11506m | 4.4m/s | -52.4°C | 8.2% | 0hPa | 0V | 00:00:00 | 00:00:00 | 00:00:00 | |
| DL9RDZ-1 | 2026-09-05 23:41:51 | 64.14800 | -22.10945 | 56° | 78km/h | 11452m | 4.1m/s | -52.2°C | 8.8% | 0hPa | 0V | 00:00:00 | 00:00:00 | 00:00:00 | |
| DL9RDZ-1 | 2026-09-05 23:41:40 | 64.14670 | -22.11396 | 58° | 88km/h | 11401m | 3.6m/s | -51.8°C | 9.2% | 0hPa | 0V | 00:00:00 | 00:00:00 | 00:00:00 | |
| DL9RDZ-1 | 2026-09-05 23:41:29 | 64.14532 | -22.11855 | 54° | 89km/h | 11351m | 4.5m/s | -51.5°C | 9.7% | 0hPa | 0V | 00:00:00 | 00:00:00 | 00:00:00 | |
| DL9RDZ-1 | 2026-09-05 23:41:18 | 64.14388 | -22.12326 | 55° | 93km/h | 11302m | 3.4m/s | -51.6°C | 10.8% | 0hPa | 0V | 00:00:00 | 00:00:00 | 00:00:00 | |
| DL9RDZ-1 | 2026-09-05 23:41:07 | 64.14227 | -22.12807 | 51° | 100km/h | 11252m | 4.2m/s | -52.1°C | 11.9% | 0hPa | 0V | 00:00:00 | 00:00:00 | 00:00:00 | |
| DL9RDZ-1 | 2026-09-05 23:40:56 | 64.14045 | -22.13292 | 50° | 102km/h | 11205m | 4.4m/s | -53.1°C | 13.8% | 0hPa | 0V | 00:00:00 | 00:00:00 | 00:00:00 | |
| DL9RDZ-1 | 2026-09-05 23:40:46 | 64.13873 | -22.13719 | 50° | 100km/h | 11165m | 4.0m/s | -53.3°C | 15.2% | 0hPa | 0V | 00:00:00 | 00:00:00 | 00:00:00 | |
| DL9RDZ-1 | 2026-09-05 23:40:36 | 64.13707 | -22.14145 | 50° | 99km/h | 11121m | 4.7m/s | -53.4°C | 16.3% | 0hPa | 0V | 00:00:00 | 00:00:00 | 00:00:00 | |
| DL9RDZ-1 | 2026-09-05 23:40:27 | 64.13536 | -22.14566 | 48° | 100km/h | 11081m | 3.3m/s | -53.3°C | 16.8% | 0hPa | 0V | 00:00:00 | 00:00:00 | 00:00:00 | |
| DL9RDZ-1 | 2026-09-05 23:40:15 | 64.13348 | -22.15067 | 49° | 102km/h | 11036m | 4.3m/s | -53.5°C | 18.4% | 0hPa | 0V | 00:00:00 | 00:00:00 | 00:00:00 | |
| DL9RDZ-1 | 2026-09-05 23:40:05 | 64.13166 | -22.15579 | 51° | 104km/h | 10991m | 3.2m/s | -53.9°C | 19.8% | 0hPa | 0V | 00:00:00 | 00:00:00 | 00:00:00 | |
| DL9RDZ-1 | 2026-09-05 23:39:53 | 64.12983 | -22.16083 | 50° | 99km/h | 10948m | 4.6m/s | -53.7°C | 21.0% | 0hPa | 0V | 00:00:00 | 00:00:00 | 00:00:00 | |
| DL9RDZ-1 | 2026-09-05 23:39:43 | 64.12814 | -22.16504 | 51° | 99km/h | 10906m | 3.1m/s | -53.6°C | 22.0% | 0hPa | 0V | 00:00:00 | 00:00:00 | 00:00:00 | |
| DL9RDZ-1 | 2026-09-05 23:39:30 | 64.12601 | -22.17054 | 50° | 97km/h | 10853m | 4.0m/s | -53.8°C | 24.9% | 0hPa | 0V | 00:00:00 | 00:00:00 | 00:00:00 | |
| DL9RDZ-1 | 2026-09-05 23:39:22 | 64.12425 | -22.17481 | 49° | 91km/h | 10808m | 4.0m/s | -54.3°C | 28.0% | 0hPa | 0V | 00:00:00 | 00:00:00 | 00:00:00 | |
| DL9RDZ-1 | 2026-09-05 23:38:57 | 64.12099 | -22.18441 | 57° | 100km/h | 10708m | 3.9m/s | -54.6°C | 33.7% | 0hPa | 0V | 00:00:00 | 00:00:00 | 00:00:00 | |
| DL9RDZ-1 | 2026-09-05 23:38:47 | 64.11957 | -22.18903 | 55° | 95km/h | 10668m | 4.5m/s | -54.6°C | 34.4% | 0hPa | 0V | 00:00:00 | 00:00:00 | 00:00:00 | |
| DL9RDZ-1 | 2026-09-05 23:38:36 | 64.11806 | -22.19403 | 59° | 93km/h | 10621m | 3.0m/s | -54.4°C | 36.5% | 0hPa | 0V | 00:00:00 | 00:00:00 | 00:00:00 | |
| DL9RDZ-1 | 2026-09-05 23:38:26 | 64.11677 | -22.19876 | 61° | 99km/h | 10577m | 3.4m/s | -54.3°C | 41.1% | 0hPa | 0V | 00:00:00 | 00:00:00 | 00:00:00 | |
| DL9RDZ-1 | 2026-09-05 23:38:15 | 64.11529 | -22.20427 | 59° | 102km/h | 10530m | 3.2m/s | -54.3°C | 50.7% | 0hPa | 0V | 00:00:00 | 00:00:00 | 00:00:00 | |
| DL9RDZ-1 | 2026-09-05 23:38:04 | 64.11372 | -22.21005 | 58° | 111km/h | 10484m | 3.0m/s | -54.1°C | 58.3% | 0hPa | 0V | 00:00:00 | 00:00:00 | 00:00:00 | |
| DL9RDZ-1 | 2026-09-05 23:37:54 | 64.11221 | -22.21560 | 59° | 115km/h | 10443m | 4.3m/s | -54.0°C | 65.5% | 0hPa | 0V | 00:00:00 | 00:00:00 | 00:00:00 | |
| DL9RDZ-1 | 2026-09-05 23:37:44 | 64.11070 | -22.22108 | 57° | 115km/h | 10403m | 4.2m/s | -53.9°C | 70.0% | 0hPa | 0V | 00:00:00 | 00:00:00 | 00:00:00 | |
| DL9RDZ-1 | 2026-09-05 23:37:34 | 64.10914 | -22.22671 | 58° | 117km/h | 10362m | 4.7m/s | -53.7°C | 73.3% | 0hPa | 0V | 00:00:00 | 00:00:00 | 00:00:00 | |
| DL9RDZ-1 | 2026-09-05 23:37:19 | 64.10670 | -22.23506 | 57° | 117km/h | 10299m | 4.8m/s | -53.5°C | 77.1% | 0hPa | 0V | 00:00:00 | 00:00:00 | 00:00:00 | |
| DL9RDZ-1 | 2026-09-05 23:37:08 | 64.10484 | -22.24119 | 57° | 115km/h | 10253m | 3.2m/s | -53.1°C | 75.0% | 0hPa | 0V | 00:00:00 | 00:00:00 | 00:00:00 | |
| DL9RDZ-1 | 2026-09-05 23:36:58 | 64.10323 | -22.24690 | 58° | 117km/h | 10214m | 3.6m/s | -52.8°C | 74.0% | 0hPa | 0V | 00:00:00 | 00:00:00 | 00:00:00 | |
| DL9RDZ-1 | 2026-09-05 23:36:48 | 64.10149 | -22.25248 | 56° | 119km/h | 10173m | 4.5m/s | -52.6°C | 66.3% | 0hPa | 0V | 00:00:00 | 00:00:00 | 00:00:00 | |
| DL9RDZ-1 | 2026-09-05 23:36:37 | 64.09958 | -22.25858 | 56° | 117km/h | 10127m | 2.8m/s | -52.3°C | 59.1% | 0hPa | 0V | 00:00:00 | 00:00:00 | 00:00:00 | |
| DL9RDZ-1 | 2026-09-05 23:36:28 | 64.09787 | -22.26395 | 54° | 117km/h | 10086m | 2.8m/s | -51.9°C | 55.5% | 0hPa | 0V | 00:00:00 | 00:00:00 | 00:00:00 | |
| DL9RDZ-1 | 2026-09-05 23:36:17 | 64.09617 | -22.26936 | 55° | 113km/h | 10045m | 4.8m/s | -51.7°C | 53.4% | 0hPa | 0V | 00:00:00 | 00:00:00 | 00:00:00 | |
| DL9RDZ-1 | 2026-09-05 23:36:06 | 64.09425 | -22.27523 | 55° | 115km/h | 10002m | 3.9m/s | -51.5°C | 53.6% | 0hPa | 0V | 00:00:00 | 00:00:00 | 00:00:00 | |
| DL9RDZ-1 | 2026-09-05 23:35:47 | 64.09109 | -22.28524 | 55° | 113km/h | 9922m | 3.7m/s | -51.3°C | 57.6% | 0hPa | 0V | 00:00:00 | 00:00:00 | 00:00:00 | |
| DL9RDZ-1 | 2026-09-05 23:35:36 | 64.08925 | -22.29093 | 54° | 113km/h | 9879m | 4.1m/s | -50.9°C | 55.9% | 0hPa | 0V | 00:00:00 | 00:00:00 | 00:00:00 | |
| DL9RDZ-1 | 2026-09-05 23:35:25 | 64.08746 | -22.29677 | 55° | 113km/h | 9837m | 3.3m/s | -50.7°C | 54.7% | 0hPa | 0V | 00:00:00 | 00:00:00 | 00:00:00 | |
| DL9RDZ-1 | 2026-09-05 23:35:14 | 64.08562 | -22.30250 | 55° | 108km/h | 9794m | 4.5m/s | -50.4°C | 52.0% | 0hPa | 0V | 00:00:00 | 00:00:00 | 00:00:00 | |
| DL9RDZ-1 | 2026-09-05 23:35:03 | 64.08380 | -22.30812 | 54° | 108km/h | 9748m | 4.7m/s | -50.0°C | 53.6% | 0hPa | 0V | 00:00:00 | 00:00:00 | 00:00:00 | |
| DL9RDZ-1 | 2026-09-05 23:34:53 | 64.08218 | -22.31322 | 54° | 111km/h | 9709m | 4.0m/s | -49.7°C | 50.7% | 0hPa | 0V | 00:00:00 | 00:00:00 | 00:00:00 | |
| DL9RDZ-1 | 2026-09-05 23:34:42 | 64.08043 | -22.31881 | 55° | 108km/h | 9666m | 2.7m/s | -49.4°C | 46.0% | 0hPa | 0V | 00:00:00 | 00:00:00 | 00:00:00 | |
| DL9RDZ-1 | 2026-09-05 23:34:31 | 64.07867 | -22.32429 | 54° | 108km/h | 9624m | 3.2m/s | -49.0°C | 43.1% | 0hPa | 0V | 00:00:00 | 00:00:00 | 00:00:00 | |
| DL9RDZ-1 | 2026-09-05 23:34:21 | 64.07706 | -22.32927 | 55° | 108km/h | 9583m | 4.4m/s | -49.0°C | 45.6% | 0hPa | 0V | 00:00:00 | 00:00:00 | 00:00:00 | |
| DL9RDZ-1 | 2026-09-05 23:34:10 | 64.07519 | -22.33492 | 54° | 100km/h | 9536m | 3.9m/s | -48.6°C | 44.3% | 0hPa | 0V | 00:00:00 | 00:00:00 | 00:00:00 | |
| DL9RDZ-1 | 2026-09-05 23:34:00 | 64.07360 | -22.33970 | 56° | 106km/h | 9480m | 7.0m/s | -48.0°C | 41.7% | 0hPa | 0V | 00:00:00 | 00:00:00 | 00:00:00 | |
| DL9RDZ-1 | 2026-09-05 23:33:50 | 64.07204 | -22.34434 | 51° | 104km/h | 9429m | 4.4m/s | -47.6°C | 46.5% | 0hPa | 0V | 00:00:00 | 00:00:00 | 00:00:00 | |
| DL9RDZ-1 | 2026-09-05 23:33:40 | 64.07035 | -22.34952 | 54° | 102km/h | 9377m | 7.6m/s | -47.6°C | 60.4% | 0hPa | 0V | 00:00:00 | 00:00:00 | 00:00:00 | |
| DL9RDZ-1 | 2026-09-05 23:33:18 | 64.06730 | -22.36017 | 57° | 102km/h | 9271m | 4.1m/s | -47.5°C | 72.5% | 0hPa | 0V | 00:00:00 | 00:00:00 | 00:00:00 | |
| DL9RDZ-1 | 2026-09-05 23:33:04 | 64.06534 | -22.36665 | 56° | 93km/h | 9213m | 4.5m/s | -47.1°C | 75.0% | 0hPa | 0V | 00:00:00 | 00:00:00 | 00:00:00 | |
| DL9RDZ-1 | 2026-09-05 23:32:54 | 64.06384 | -22.37171 | 56° | 97km/h | 9169m | 4.6m/s | -46.8°C | 73.0% | 0hPa | 0V | 00:00:00 | 00:00:00 | 00:00:00 | |
| DL9RDZ-1 | 2026-09-05 23:32:42 | 64.06233 | -22.37675 | 57° | 97km/h | 9124m | 3.4m/s | -46.4°C | 74.8% | 0hPa | 0V | 00:00:00 | 00:00:00 | 00:00:00 | |
| DL9RDZ-1 | 2026-09-05 23:32:31 | 64.06084 | -22.38193 | 56° | 99km/h | 9081m | 4.3m/s | -46.0°C | 76.5% | 0hPa | 0V | 00:00:00 | 00:00:00 | 00:00:00 | |
| DL9RDZ-1 | 2026-09-05 23:32:20 | 64.05936 | -22.38694 | 60° | 95km/h | 9038m | 3.7m/s | -45.6°C | 77.0% | 0hPa | 0V | 00:00:00 | 00:00:00 | 00:00:00 | |
| DL9RDZ-1 | 2026-09-05 23:32:09 | 64.05789 | -22.39210 | 59° | 95km/h | 8993m | 3.7m/s | -45.2°C | 75.0% | 0hPa | 0V | 00:00:00 | 00:00:00 | 00:00:00 | |
| DL9RDZ-1 | 2026-09-05 23:31:39 | 64.05395 | -22.40603 | 57° | 97km/h | 8872m | 4.0m/s | -44.1°C | 70.1% | 0hPa | 0V | 00:00:00 | 00:00:00 | 00:00:00 | |
| DL9RDZ-1 | 2026-09-05 23:31:29 | 64.05264 | -22.41065 | 59° | 95km/h | 8830m | 3.3m/s | -43.8°C | 72.2% | 0hPa | 0V | 00:00:00 | 00:00:00 | 00:00:00 | |
| DL9RDZ-1 | 2026-09-05 23:31:08 | 64.04984 | -22.42021 | 57° | 91km/h | 8744m | 4.0m/s | -43.2°C | 78.6% | 0hPa | 0V | 00:00:00 | 00:00:00 | 00:00:00 | |
| DL9RDZ-1 | 2026-09-05 23:30:58 | 64.04857 | -22.42467 | 57° | 95km/h | 8703m | 4.5m/s | -42.8°C | 77.3% | 0hPa | 0V | 00:00:00 | 00:00:00 | 00:00:00 | |
| DL9RDZ-1 | 2026-09-05 23:30:47 | 64.04717 | -22.42947 | 56° | 91km/h | 8656m | 3.6m/s | -42.4°C | 73.8% | 0hPa | 0V | 00:00:00 | 00:00:00 | 00:00:00 | |
| DL9RDZ-1 | 2026-09-05 23:30:36 | 64.04577 | -22.43427 | 57° | 89km/h | 8609m | 4.4m/s | -42.0°C | 73.4% | 0hPa | 0V | 00:00:00 | 00:00:00 | 00:00:00 | |
| DL9RDZ-1 | 2026-09-05 23:30:25 | 64.04436 | -22.43896 | 59° | 89km/h | 8564m | 4.6m/s | -41.6°C | 73.2% | 0hPa | 0V | 00:00:00 | 00:00:00 | 00:00:00 | |
| DL9RDZ-1 | 2026-09-05 23:30:17 | 64.04313 | -22.44334 | 58° | 89km/h | 8522m | 2.6m/s | -41.3°C | 72.7% | 0hPa | 0V | 00:00:00 | 00:00:00 | 00:00:00 | |
| DL9RDZ-1 | 2026-09-05 23:30:04 | 64.04175 | -22.44803 | 56° | 89km/h | 8478m | 3.5m/s | -40.9°C | 71.9% | 0hPa | 0V | 00:00:00 | 00:00:00 | 00:00:00 | |
| DL9RDZ-1 | 2026-09-05 23:29:54 | 64.04045 | -22.45219 | 55° | 88km/h | 8435m | 4.7m/s | -40.5°C | 76.7% | 0hPa | 0V | 00:00:00 | 00:00:00 | 00:00:00 | |
| DL9RDZ-1 | 2026-09-05 23:29:44 | 64.03919 | -22.45640 | 58° | 91km/h | 8393m | 4.6m/s | -40.2°C | 73.4% | 0hPa | 0V | 00:00:00 | 00:00:00 | 00:00:00 | |
| DL9RDZ-1 | 2026-09-05 23:29:33 | 64.03782 | -22.46107 | 55° | 89km/h | 8346m | 4.6m/s | -39.9°C | 74.2% | 0hPa | 0V | 00:00:00 | 00:00:00 | 00:00:00 | |
| DL9RDZ-1 | 2026-09-05 23:29:22 | 64.03644 | -22.46566 | 55° | 88km/h | 8298m | 4.2m/s | -39.4°C | 73.3% | 0hPa | 0V | 00:00:00 | 00:00:00 | 00:00:00 | |
| DL9RDZ-1 | 2026-09-05 23:29:11 | 64.03505 | -22.47013 | 56° | 88km/h | 8251m | 4.2m/s | -39.1°C | 72.8% | 0hPa | 0V | 00:00:00 | 00:00:00 | 00:00:00 | |
| DL9RDZ-1 | 2026-09-05 23:29:01 | 64.03378 | -22.47426 | 56° | 89km/h | 8205m | 4.2m/s | -38.7°C | 72.7% | 0hPa | 0V | 00:00:00 | 00:00:00 | 00:00:00 | |
| DL9RDZ-1 | 2026-09-05 23:28:50 | 64.03230 | -22.47889 | 54° | 89km/h | 8158m | 4.5m/s | -38.4°C | 69.1% | 0hPa | 0V | 00:00:00 | 00:00:00 | 00:00:00 | |
| DL9RDZ-1 | 2026-09-05 23:28:40 | 64.03101 | -22.48297 | 57° | 89km/h | 8109m | 5.6m/s | -37.9°C | 66.8% | 0hPa | 0V | 00:00:00 | 00:00:00 | 00:00:00 | |
| DL9RDZ-1 | 2026-09-05 23:28:29 | 64.02969 | -22.48704 | 57° | 84km/h | 8043m | 6.7m/s | -37.4°C | 61.8% | 0hPa | 0V | 00:00:00 | 00:00:00 | 00:00:00 | |
| DL9RDZ-1 | 2026-09-05 23:28:18 | 64.02853 | -22.49150 | 58° | 84km/h | 7973m | 7.0m/s | -36.9°C | 49.8% | 0hPa | 0V | 00:00:00 | 00:00:00 | 00:00:00 | |
| DL9RDZ-1 | 2026-09-05 23:28:07 | 64.02738 | -22.49580 | 60° | 78km/h | 7924m | 5.3m/s | -36.7°C | 56.5% | 0hPa | 0V | 00:00:00 | 00:00:00 | 00:00:00 | |
| DL9RDZ-1 | 2026-09-05 23:27:57 | 64.02637 | -22.49967 | 58° | 78km/h | 7884m | 2.9m/s | -36.3°C | 51.1% | 0hPa | 0V | 00:00:00 | 00:00:00 | 00:00:00 | |
| DL9RDZ-1 | 2026-09-05 23:27:47 | 64.02535 | -22.50351 | 58° | 75km/h | 7843m | 4.0m/s | -36.1°C | 58.4% | 0hPa | 0V | 00:00:00 | 00:00:00 | 00:00:00 | |
| DL9RDZ-1 | 2026-09-05 23:27:36 | 64.02422 | -22.50767 | 61° | 77km/h | 7794m | 4.5m/s | -35.9°C | 55.2% | 0hPa | 0V | 00:00:00 | 00:00:00 | 00:00:00 | |
| DL9RDZ-1 | 2026-09-05 23:27:25 | 64.02327 | -22.51191 | 62° | 73km/h | 7748m | 3.6m/s | -35.6°C | 39.1% | 0hPa | 0V | 00:00:00 | 00:00:00 | 00:00:00 | |
| DL9RDZ-1 | 2026-09-05 23:27:15 | 64.02236 | -22.51543 | 59° | 69km/h | 7707m | 4.0m/s | -35.3°C | 28.6% | 0hPa | 0V | 00:00:00 | 00:00:00 | 00:00:00 | |
| DL9RDZ-1 | 2026-09-05 23:27:04 | 64.02130 | -22.51933 | 60° | 68km/h | 7655m | 4.2m/s | -35.0°C | 24.2% | 0hPa | 0V | 00:00:00 | 00:00:00 | 00:00:00 | |
| DL9RDZ-1 | 2026-09-05 23:26:54 | 64.02038 | -22.52260 | 57° | 69km/h | 7608m | 4.9m/s | -34.8°C | 27.3% | 0hPa | 0V | 00:00:00 | 00:00:00 | 00:00:00 | |
| DL9RDZ-1 | 2026-09-05 23:26:44 | 64.01948 | -22.52582 | 60° | 66km/h | 7564m | 2.9m/s | -34.5°C | 22.8% | 0hPa | 0V | 00:00:00 | 00:00:00 | 00:00:00 | |
| DL9RDZ-1 | 2026-09-05 23:26:33 | 64.01851 | -22.52900 | 56° | 60km/h | 7508m | 4.0m/s | -34.2°C | 18.2% | 0hPa | 0V | 00:00:00 | 00:00:00 | 00:00:00 | |
| DL9RDZ-1 | 2026-09-05 23:26:22 | 64.01756 | -22.53220 | 64° | 62km/h | 7450m | 4.6m/s | -33.9°C | 15.7% | 0hPa | 0V | 00:00:00 | 00:00:00 | 00:00:00 | |
| DL9RDZ-1 | 2026-09-05 23:26:11 | 64.01678 | -22.53565 | 64° | 62km/h | 7392m | 4.5m/s | -33.5°C | 15.8% | 0hPa | 0V | 00:00:00 | 00:00:00 | 00:00:00 | |
| DL9RDZ-1 | 2026-09-05 23:26:00 | 64.01597 | -22.53885 | 63° | 60km/h | 7341m | 5.2m/s | -33.1°C | 14.7% | 0hPa | 0V | 00:00:00 | 00:00:00 | 00:00:00 | |
| DL9RDZ-1 | 2026-09-05 23:25:49 | 64.01527 | -22.54206 | 66° | 55km/h | 7293m | 3.1m/s | -32.7°C | 13.8% | 0hPa | 0V | 00:00:00 | 00:00:00 | 00:00:00 | |
| DL9RDZ-1 | 2026-09-05 23:25:39 | 64.01469 | -22.54493 | 69° | 53km/h | 7251m | 4.3m/s | -32.5°C | 11.8% | 0hPa | 0V | 00:00:00 | 00:00:00 | 00:00:00 | |
| DL9RDZ-1 | 2026-09-05 23:25:28 | 64.01414 | -22.54807 | 66° | 55km/h | 7207m | 5.2m/s | -32.4°C | 11.7% | 0hPa | 0V | 00:00:00 | 00:00:00 | 00:00:00 | |
| DL9RDZ-1 | 2026-09-05 23:25:07 | 64.01292 | -22.55332 | 57° | 46km/h | 7117m | 3.8m/s | -31.9°C | 10.6% | 0hPa | 0V | 00:00:00 | 00:00:00 | 00:00:00 | |
| DL9RDZ-1 | 2026-09-05 23:24:56 | 64.01221 | -22.55560 | 59° | 46km/h | 7075m | 3.5m/s | -31.6°C | 10.9% | 0hPa | 0V | 00:00:00 | 00:00:00 | 00:00:00 | |
| DL9RDZ-1 | 2026-09-05 23:24:46 | 64.01156 | -22.55759 | 46° | 44km/h | 7035m | 4.1m/s | -31.4°C | 11.3% | 0hPa | 0V | 00:00:00 | 00:00:00 | 00:00:00 | |
| DL9RDZ-1 | 2026-09-05 23:24:35 | 64.01070 | -22.55990 | 49° | 46km/h | 6993m | 6.1m/s | -31.1°C | 11.1% | 0hPa | 0V | 00:00:00 | 00:00:00 | 00:00:00 | |
| DL9RDZ-1 | 2026-09-05 23:24:25 | 64.00993 | -22.56186 | 48° | 49km/h | 6942m | 3.6m/s | -30.9°C | 11.3% | 0hPa | 0V | 00:00:00 | 00:00:00 | 00:00:00 | |
| DL9RDZ-1 | 2026-09-05 23:24:14 | 64.00908 | -22.56402 | 48° | 44km/h | 6888m | 2.8m/s | -30.7°C | 12.6% | 0hPa | 0V | 00:00:00 | 00:00:00 | 00:00:00 | |
| DL9RDZ-1 | 2026-09-05 23:24:04 | 64.00829 | -22.56594 | 49° | 46km/h | 6831m | 4.1m/s | -30.6°C | 12.2% | 0hPa | 0V | 00:00:00 | 00:00:00 | 00:00:00 | |
| DL9RDZ-1 | 2026-09-05 23:23:54 | 64.00752 | -22.56782 | 46° | 44km/h | 6790m | 2.3m/s | -30.6°C | 15.0% | 0hPa | 0V | 00:00:00 | 00:00:00 | 00:00:00 | |
| DL9RDZ-1 | 2026-09-05 23:23:43 | 64.00667 | -22.56986 | 53° | 42km/h | 6748m | 3.7m/s | -30.4°C | 15.4% | 0hPa | 0V | 00:00:00 | 00:00:00 | 00:00:00 | |
| DL9RDZ-1 | 2026-09-05 23:23:33 | 64.00594 | -22.57168 | 50° | 44km/h | 6708m | 2.1m/s | -30.3°C | 15.9% | 0hPa | 0V | 00:00:00 | 00:00:00 | 00:00:00 | |
| DL9RDZ-1 | 2026-09-05 23:23:23 | 64.00513 | -22.57349 | 48° | 40km/h | 6665m | 4.5m/s | -30.0°C | 16.8% | 0hPa | 0V | 00:00:00 | 00:00:00 | 00:00:00 | |
| DL9RDZ-1 | 2026-09-05 23:23:12 | 64.00448 | -22.57503 | 41° | 35km/h | 6622m | 5.0m/s | -29.7°C | 16.9% | 0hPa | 0V | 00:00:00 | 00:00:00 | 00:00:00 | |
| DL9RDZ-1 | 2026-09-05 23:23:01 | 64.00367 | -22.57679 | 46° | 37km/h | 6563m | 4.6m/s | -29.4°C | 16.2% | 0hPa | 0V | 00:00:00 | 00:00:00 | 00:00:00 | |
| DL9RDZ-1 | 2026-09-05 23:22:51 | 64.00286 | -22.57829 | 47° | 37km/h | 6518m | 3.9m/s | -29.1°C | 16.7% | 0hPa | 0V | 00:00:00 | 00:00:00 | 00:00:00 | |
| DL9RDZ-1 | 2026-09-05 23:22:38 | 64.00191 | -22.58021 | 39° | 35km/h | 6456m | 4.9m/s | -28.8°C | 16.4% | 0hPa | 0V | 00:00:00 | 00:00:00 | 00:00:00 | |
| DL9RDZ-1 | 2026-09-05 23:22:28 | 64.00127 | -22.58167 | 36° | 38km/h | 6413m | 5.7m/s | -28.4°C | 16.0% | 0hPa | 0V | 00:00:00 | 00:00:00 | 00:00:00 | |
| DL9RDZ-1 | 2026-09-05 23:22:17 | 64.00048 | -22.58305 | 37° | 29km/h | 6358m | 3.6m/s | -28.2°C | 17.4% | 0hPa | 0V | 00:00:00 | 00:00:00 | 00:00:00 | |
| DL9RDZ-1 | 2026-09-05 23:22:06 | 63.99990 | -22.58420 | 44° | 20km/h | 6305m | 4.6m/s | -27.8°C | 17.6% | 0hPa | 0V | 00:00:00 | 00:00:00 | 00:00:00 | |
| DL9RDZ-1 | 2026-09-05 23:21:55 | 63.99934 | -22.58530 | 38° | 24km/h | 6254m | 4.5m/s | -27.5°C | 17.9% | 0hPa | 0V | 00:00:00 | 00:00:00 | 00:00:00 | |
| DL9RDZ-1 | 2026-09-05 23:20:36 | 63.99537 | -22.59142 | 19° | 22km/h | 5888m | 3.9m/s | -24.8°C | 11.7% | 0hPa | 0V | 00:00:00 | 00:00:00 | 00:00:00 | |
| DL9RDZ-1 | 2026-09-05 23:20:24 | 63.99486 | -22.59229 | 37° | 26km/h | 5834m | 5.8m/s | -24.4°C | 10.8% | 0hPa | 0V | 00:00:00 | 00:00:00 | 00:00:00 | |
| DL9RDZ-1 | 2026-09-05 23:20:13 | 63.99429 | -22.59298 | 30° | 22km/h | 5783m | 6.6m/s | -24.0°C | 10.9% | 0hPa | 0V | 00:00:00 | 00:00:00 | 00:00:00 | |
| DL9RDZ-1 | 2026-09-05 23:20:03 | 63.99395 | -22.59355 | 32° | 18km/h | 5735m | 4.8m/s | -23.7°C | 10.3% | 0hPa | 0V | 00:00:00 | 00:00:00 | 00:00:00 | |
| DL9RDZ-1 | 2026-09-05 23:19:53 | 63.99363 | -22.59385 | 9° | 16km/h | 5677m | 3.8m/s | -23.3°C | 10.5% | 0hPa | 0V | 00:00:00 | 00:00:00 | 00:00:00 | |
| DL9RDZ-1 | 2026-09-05 23:19:43 | 63.99338 | -22.59434 | 57° | 13km/h | 5627m | 5.8m/s | -22.9°C | 10.5% | 0hPa | 0V | 00:00:00 | 00:00:00 | 00:00:00 | |
| DL9RDZ-1 | 2026-09-05 23:19:32 | 63.99305 | -22.59469 | 31° | 13km/h | 5570m | 7.6m/s | -22.4°C | 9.6% | 0hPa | 0V | 00:00:00 | 00:00:00 | 00:00:00 | |
| DL9RDZ-1 | 2026-09-05 23:19:21 | 63.99279 | -22.59510 | 54° | 9km/h | 5508m | 5.7m/s | -21.9°C | 8.6% | 0hPa | 0V | 00:00:00 | 00:00:00 | 00:00:00 | |
| DL9RDZ-1 | 2026-09-05 23:19:10 | 63.99253 | -22.59561 | 46° | 18km/h | 5448m | 4.4m/s | -21.4°C | 8.6% | 0hPa | 0V | 00:00:00 | 00:00:00 | 00:00:00 | |
| DL9RDZ-1 | 2026-09-05 23:19:00 | 63.99230 | -22.59622 | 56° | 7km/h | 5398m | 5.5m/s | -20.9°C | 8.3% | 0hPa | 0V | 00:00:00 | 00:00:00 | 00:00:00 | |
| DL9RDZ-1 | 2026-09-05 23:18:49 | 63.99208 | -22.59660 | 33° | 13km/h | 5342m | 5.7m/s | -20.4°C | 8.2% | 0hPa | 0V | 00:00:00 | 00:00:00 | 00:00:00 | |
| DL9RDZ-1 | 2026-09-05 23:18:39 | 63.99181 | -22.59682 | 353° | 9km/h | 5289m | 5.7m/s | -20.1°C | 8.1% | 0hPa | 0V | 00:00:00 | 00:00:00 | 00:00:00 | |
| DL9RDZ-1 | 2026-09-05 23:18:28 | 63.99158 | -22.59686 | 58° | 11km/h | 5231m | 5.2m/s | -19.6°C | 8.6% | 0hPa | 0V | 00:00:00 | 00:00:00 | 00:00:00 | |
| DL9RDZ-1 | 2026-09-05 23:18:17 | 63.99141 | -22.59719 | 55° | 7km/h | 5176m | 5.2m/s | -19.1°C | 7.2% | 0hPa | 0V | 00:00:00 | 00:00:00 | 00:00:00 | |
| DL9RDZ-1 | 2026-09-05 23:18:07 | 63.99122 | -22.59746 | 44° | 11km/h | 5123m | 6.1m/s | -18.8°C | 6.9% | 0hPa | 0V | 00:00:00 | 00:00:00 | 00:00:00 | |
| DL9RDZ-1 | 2026-09-05 23:17:56 | 63.99097 | -22.59767 | 35° | 15km/h | 5063m | 4.6m/s | -18.4°C | 7.3% | 0hPa | 0V | 00:00:00 | 00:00:00 | 00:00:00 | |
| DL9RDZ-1 | 2026-09-05 23:17:46 | 63.99069 | -22.59782 | 5° | 11km/h | 5011m | 6.5m/s | -18.0°C | 7.2% | 0hPa | 0V | 00:00:00 | 00:00:00 | 00:00:00 | |
| DL9RDZ-1 | 2026-09-05 23:17:35 | 63.99047 | -22.59809 | 3° | 5km/h | 4952m | 6.2m/s | -17.6°C | 7.0% | 0hPa | 0V | 00:00:00 | 00:00:00 | 00:00:00 | |
| DL9RDZ-1 | 2026-09-05 23:17:25 | 63.99022 | -22.59805 | 346° | 9km/h | 4896m | 7.8m/s | -17.2°C | 6.6% | 0hPa | 0V | 00:00:00 | 00:00:00 | 00:00:00 | |
| DL9RDZ-1 | 2026-09-05 23:17:21 | 63.98996 | -22.59810 | 40° | 7km/h | 4841m | 3.7m/s | -16.8°C | 6.5% | 0hPa | 0V | 00:00:00 | 00:00:00 | 00:00:00 | |
| DL9RDZ-1 | 2026-09-05 23:17:06 | 63.98977 | -22.59847 | 5° | 13km/h | 4791m | 5.5m/s | -16.3°C | 6.2% | 0hPa | 0V | 00:00:00 | 00:00:00 | 00:00:00 | |
| DL9RDZ-1 | 2026-09-05 23:16:53 | 63.98952 | -22.59862 | 29° | 15km/h | 4737m | 4.8m/s | -16.0°C | 6.0% | 0hPa | 0V | 00:00:00 | 00:00:00 | 00:00:00 | |
| DL9RDZ-1 | 2026-09-05 23:16:42 | 63.98932 | -22.59890 | 22° | 9km/h | 4681m | 4.4m/s | -15.5°C | 5.5% | 0hPa | 0V | 00:00:00 | 00:00:00 | 00:00:00 | |
| DL9RDZ-1 | 2026-09-05 23:16:32 | 63.98911 | -22.59920 | 15° | 11km/h | 4631m | 4.2m/s | -15.1°C | 4.5% | 0hPa | 0V | 00:00:00 | 00:00:00 | 00:00:00 | |
| DL9RDZ-1 | 2026-09-05 23:16:21 | 63.98885 | -22.59942 | 33° | 13km/h | 4572m | 4.7m/s | -14.9°C | 3.9% | 0hPa | 0V | 00:00:00 | 00:00:00 | 00:00:00 | |
| DL9RDZ-1 | 2026-09-05 23:16:10 | 63.98875 | -22.59965 | 86° | 5km/h | 4522m | 4.9m/s | -14.8°C | 4.1% | 0hPa | 0V | 00:00:00 | 00:00:00 | 00:00:00 | |
| DL9RDZ-1 | 2026-09-05 23:15:59 | 63.98863 | -22.60014 | 45° | 7km/h | 4462m | 5.4m/s | -14.6°C | 4.3% | 0hPa | 0V | 00:00:00 | 00:00:00 | 00:00:00 | |
| DL9RDZ-1 | 2026-09-05 23:15:48 | 63.98846 | -22.60079 | 41° | 7km/h | 4389m | 5.5m/s | -14.1°C | 4.3% | 0hPa | 0V | 00:00:00 | 00:00:00 | 00:00:00 | |
| DL9RDZ-1 | 2026-09-05 23:15:38 | 63.98836 | -22.60123 | 60° | 9km/h | 4343m | 5.0m/s | -13.8°C | 4.4% | 0hPa | 0V | 00:00:00 | 00:00:00 | 00:00:00 | |
| DL9RDZ-1 | 2026-09-05 23:15:27 | 63.98827 | -22.60169 | 51° | 7km/h | 4283m | 6.2m/s | -13.5°C | 4.2% | 0hPa | 0V | 00:00:00 | 00:00:00 | 00:00:00 | |
| DL9RDZ-1 | 2026-09-05 23:15:16 | 63.98817 | -22.60205 | 5° | 9km/h | 4225m | 4.5m/s | -13.1°C | 4.4% | 0hPa | 0V | 00:00:00 | 00:00:00 | 00:00:00 | |
| DL9RDZ-1 | 2026-09-05 23:15:06 | 63.98808 | -22.60229 | 79° | 9km/h | 4162m | 6.1m/s | -13.0°C | 5.0% | 0hPa | 0V | 00:00:00 | 00:00:00 | 00:00:00 | |
| DL9RDZ-1 | 2026-09-05 23:14:54 | 63.98794 | -22.60265 | 360° | 11km/h | 4110m | 2.8m/s | -12.8°C | 4.9% | 0hPa | 0V | 00:00:00 | 00:00:00 | 00:00:00 | |
| DL9RDZ-1 | 2026-09-05 23:14:43 | 63.98772 | -22.60272 | 8° | 11km/h | 4049m | 6.8m/s | -12.5°C | 4.6% | 0hPa | 0V | 00:00:00 | 00:00:00 | 00:00:00 | |
| DL9RDZ-1 | 2026-09-05 23:14:33 | 63.98743 | -22.60295 | 11° | 11km/h | 3997m | 6.3m/s | -12.1°C | 5.0% | 0hPa | 0V | 00:00:00 | 00:00:00 | 00:00:00 | |
| DL9RDZ-1 | 2026-09-05 23:14:23 | 63.98717 | -22.60283 | 347° | 15km/h | 3941m | 4.7m/s | -11.8°C | 4.8% | 0hPa | 0V | 00:00:00 | 00:00:00 | 00:00:00 | |
| DL9RDZ-1 | 2026-09-05 23:14:13 | 63.98690 | -22.60291 | 356° | 13km/h | 3891m | 5.1m/s | -11.4°C | 5.0% | 0hPa | 0V | 00:00:00 | 00:00:00 | 00:00:00 | |
| DL9RDZ-1 | 2026-09-05 23:14:02 | 63.98659 | -22.60293 | 345° | 9km/h | 3844m | 3.9m/s | -11.1°C | 5.4% | 0hPa | 0V | 00:00:00 | 00:00:00 | 00:00:00 | |
| DL9RDZ-1 | 2026-09-05 23:13:52 | 63.98641 | -22.60280 | 355° | 18km/h | 3794m | 4.3m/s | -10.7°C | 4.4% | 0hPa | 0V | 00:00:00 | 00:00:00 | 00:00:00 | |
| DL9RDZ-1 | 2026-09-05 23:13:42 | 63.98615 | -22.60270 | 10° | 9km/h | 3742m | 3.3m/s | -10.5°C | 4.6% | 0hPa | 0V | 00:00:00 | 00:00:00 | 00:00:00 | |
| DL9RDZ-1 | 2026-09-05 23:13:31 | 63.98597 | -22.60248 | 348° | 11km/h | 3689m | 5.2m/s | -10.3°C | 5.1% | 0hPa | 0V | 00:00:00 | 00:00:00 | 00:00:00 | |
| DL9RDZ-1 | 2026-09-05 23:13:20 | 63.98575 | -22.60251 | 19° | 11km/h | 3631m | 5.1m/s | -10.1°C | 5.7% | 0hPa | 0V | 00:00:00 | 00:00:00 | 00:00:00 | |
| DL9RDZ-1 | 2026-09-05 23:13:11 | 63.98553 | -22.60257 | 30° | 4km/h | 3565m | 7.5m/s | -10.0°C | 9.1% | 0hPa | 0V | 00:00:00 | 00:00:00 | 00:00:00 | |
| DL9RDZ-1 | 2026-09-05 23:12:59 | 63.98540 | -22.60300 | 86° | 11km/h | 3516m | 4.4m/s | -9.7°C | 8.5% | 0hPa | 0V | 00:00:00 | 00:00:00 | 00:00:00 | |
| DL9RDZ-1 | 2026-09-05 23:12:48 | 63.98510 | -22.60360 | 30° | 16km/h | 3469m | 2.1m/s | -9.5°C | 8.6% | 0hPa | 0V | 00:00:00 | 00:00:00 | 00:00:00 | |
| DL9RDZ-1 | 2026-09-05 23:12:37 | 63.98494 | -22.60414 | 56° | 16km/h | 3420m | 4.2m/s | -9.3°C | 8.3% | 0hPa | 0V | 00:00:00 | 00:00:00 | 00:00:00 | |
| DL9RDZ-1 | 2026-09-05 23:12:27 | 63.98477 | -22.60485 | 64° | 13km/h | 3369m | 4.2m/s | -9.3°C | 10.4% | 0hPa | 0V | 00:00:00 | 00:00:00 | 00:00:00 | |
| DL9RDZ-1 | 2026-09-05 23:12:17 | 63.98448 | -22.60519 | 78° | 11km/h | 3320m | 6.7m/s | -9.0°C | 10.7% | 0hPa | 0V | 00:00:00 | 00:00:00 | 00:00:00 | |
| DL9RDZ-1 | 2026-09-05 23:12:06 | 63.98427 | -22.60542 | 43° | 11km/h | 3257m | 5.9m/s | -8.5°C | 10.5% | 0hPa | 0V | 00:00:00 | 00:00:00 | 00:00:00 | |
| DL9RDZ-1 | 2026-09-05 23:11:55 | 63.98428 | -22.60574 | 0° | 0km/h | 3201m | 5.7m/s | -8.1°C | 10.1% | 0hPa | 0V | 00:00:00 | 00:00:00 | 00:00:00 | |
| DL9RDZ-1 | 2026-09-05 23:11:45 | 63.98411 | -22.60605 | 34° | 13km/h | 3147m | 4.7m/s | -7.8°C | 10.7% | 0hPa | 0V | 00:00:00 | 00:00:00 | 00:00:00 | |
| DL9RDZ-1 | 2026-09-05 23:11:34 | 63.98385 | -22.60662 | 44° | 15km/h | 3097m | 3.4m/s | -7.4°C | 10.8% | 0hPa | 0V | 00:00:00 | 00:00:00 | 00:00:00 | |
| DL9RDZ-1 | 2026-09-05 23:11:23 | 63.98353 | -22.60730 | 50° | 11km/h | 3041m | 3.3m/s | -7.3°C | 9.7% | 0hPa | 0V | 00:00:00 | 00:00:00 | 00:00:00 | |
| DL9RDZ-1 | 2026-09-05 23:11:12 | 63.98342 | -22.60779 | 54° | 9km/h | 2994m | 5.5m/s | -7.1°C | 9.4% | 0hPa | 0V | 00:00:00 | 00:00:00 | 00:00:00 | |
| DL9RDZ-1 | 2026-09-05 23:11:01 | 63.98310 | -22.60825 | 21° | 11km/h | 2946m | 4.3m/s | -6.7°C | 9.7% | 0hPa | 0V | 00:00:00 | 00:00:00 | 00:00:00 | |
| DL9RDZ-1 | 2026-09-05 23:10:51 | 63.98290 | -22.60874 | 79° | 9km/h | 2904m | 4.3m/s | -6.5°C | 9.7% | 0hPa | 0V | 00:00:00 | 00:00:00 | 00:00:00 | |
| DL9RDZ-1 | 2026-09-05 23:10:40 | 63.98272 | -22.60907 | 75° | 9km/h | 2855m | 3.5m/s | -6.2°C | 10.0% | 0hPa | 0V | 00:00:00 | 00:00:00 | 00:00:00 | |
| DL9RDZ-1 | 2026-09-05 23:10:30 | 63.98248 | -22.60928 | 30° | 13km/h | 2814m | 5.3m/s | -5.8°C | 9.8% | 0hPa | 0V | 00:00:00 | 00:00:00 | 00:00:00 | |
| DL9RDZ-1 | 2026-09-05 23:10:09 | 63.98205 | -22.61080 | 46° | 18km/h | 2719m | 6.5m/s | -5.2°C | 9.3% | 0hPa | 0V | 00:00:00 | 00:00:00 | 00:00:00 | |
| DL9RDZ-1 | 2026-09-05 23:09:48 | 63.98177 | -22.61215 | 56° | 11km/h | 2619m | 4.9m/s | -5.3°C | 14.7% | 0hPa | 0V | 00:00:00 | 00:00:00 | 00:00:00 | |
| DL9RDZ-1 | 2026-09-05 23:09:38 | 63.98154 | -22.61276 | 42° | 16km/h | 2574m | 3.6m/s | -5.7°C | 24.8% | 0hPa | 0V | 00:00:00 | 00:00:00 | 00:00:00 | |
| DL9RDZ-1 | 2026-09-05 23:09:28 | 63.98111 | -22.61310 | 10° | 27km/h | 2530m | 5.5m/s | -6.4°C | 52.2% | 0hPa | 0V | 00:00:00 | 00:00:00 | 00:00:00 | |
| DL9RDZ-1 | 2026-09-05 23:09:17 | 63.98028 | -22.61378 | 33° | 27km/h | 2470m | 6.2m/s | -6.4°C | 63.7% | 0hPa | 0V | 00:00:00 | 00:00:00 | 00:00:00 | |
| DL9RDZ-1 | 2026-09-05 23:09:05 | 63.97960 | -22.61479 | 42° | 27km/h | 2420m | 6.6m/s | -6.3°C | 69.8% | 0hPa | 0V | 00:00:00 | 00:00:00 | 00:00:00 | |
| DL9RDZ-1 | 2026-09-05 23:08:54 | 63.97884 | -22.61584 | 36° | 35km/h | 2360m | 6.8m/s | -5.8°C | 71.2% | 0hPa | 0V | 00:00:00 | 00:00:00 | 00:00:00 | |
| DL9RDZ-1 | 2026-09-05 23:08:43 | 63.97812 | -22.61683 | 35° | 27km/h | 2301m | 5.2m/s | -5.3°C | 69.6% | 0hPa | 0V | 00:00:00 | 00:00:00 | 00:00:00 | |
| DL9RDZ-1 | 2026-09-05 23:08:32 | 63.97750 | -22.61749 | 32° | 24km/h | 2241m | 3.6m/s | -5.0°C | 67.1% | 0hPa | 0V | 00:00:00 | 00:00:00 | 00:00:00 | |
| DL9RDZ-1 | 2026-09-05 23:08:22 | 63.97704 | -22.61802 | 26° | 22km/h | 2190m | 5.1m/s | -4.7°C | 69.4% | 0hPa | 0V | 00:00:00 | 00:00:00 | 00:00:00 | |
| DL9RDZ-1 | 2026-09-05 23:08:11 | 63.97658 | -22.61835 | 37° | 20km/h | 2145m | 4.5m/s | -4.3°C | 71.5% | 0hPa | 0V | 00:00:00 | 00:00:00 | 00:00:00 | |
| DL9RDZ-1 | 2026-09-05 23:08:01 | 63.97640 | -22.61854 | 3° | 7km/h | 2093m | 5.6m/s | -3.9°C | 74.4% | 0hPa | 0V | 00:00:00 | 00:00:00 | 00:00:00 | |
| DL9RDZ-1 | 2026-09-05 23:07:50 | 63.97625 | -22.61869 | 34° | 7km/h | 2040m | 5.6m/s | -3.6°C | 77.2% | 0hPa | 0V | 00:00:00 | 00:00:00 | 00:00:00 | |
| DL9RDZ-1 | 2026-09-05 23:07:39 | 63.97595 | -22.61879 | 358° | 7km/h | 1987m | 3.7m/s | -3.1°C | 81.3% | 0hPa | 0V | 00:00:00 | 00:00:00 | 00:00:00 | |
| DL9RDZ-1 | 2026-09-05 23:05:57 | 63.97219 | -22.62158 | 19° | 27km/h | 1467m | 4.2m/s | 0.0°C | 94.9% | 0hPa | 0V | 00:00:00 | 00:00:00 | 00:00:00 | |
| DL9RDZ-1 | 2026-09-05 23:05:47 | 63.97176 | -22.62175 | 3° | 15km/h | 1409m | 6.7m/s | 0.6°C | 91.7% | 0hPa | 0V | 00:00:00 | 00:00:00 | 00:00:00 | |
| DL9RDZ-1 | 2026-09-05 23:05:37 | 63.97133 | -22.62207 | 36° | 15km/h | 1352m | 4.1m/s | 1.1°C | 0% | 0hPa | 0V | 00:00:00 | 00:00:00 | 00:00:00 | |
| DL9RDZ-1 | 2026-09-05 23:05:26 | 63.97092 | -22.62232 | 23° | 24km/h | 1293m | 5.2m/s | 1.5°C | 0% | 0hPa | 0V | 00:00:00 | 00:00:00 | 00:00:00 | |
| DL9RDZ-1 | 2026-09-05 23:05:16 | 63.97058 | -22.62282 | 52° | 11km/h | 1245m | 6.4m/s | 1.6°C | 0% | 0hPa | 0V | 00:00:00 | 00:00:00 | 00:00:00 | |
| DL9RDZ-1 | 2026-09-05 23:05:06 | 63.97040 | -22.62301 | 0° | 0km/h | 1184m | 5.9m/s | 0°C | 0% | 0hPa | 0V | 00:00:00 | 00:00:00 | 00:00:00 | |
| DL9RDZ-1 | 2026-09-05 23:04:55 | 63.97027 | -22.62267 | 12° | 11km/h | 1140m | 4.5m/s | 0°C | 0% | 0hPa | 0V | 00:00:00 | 00:00:00 | 00:00:00 | |
| DL9RDZ-1 | 2026-09-05 23:04:43 | 63.97000 | -22.62292 | 36° | 11km/h | 1076m | 4.4m/s | 0°C | 0% | 0hPa | 0V | 00:00:00 | 00:00:00 | 00:00:00 | |
| DL9RDZ-1 | 2026-09-05 23:04:33 | 63.96962 | -22.62332 | 36° | 16km/h | 1027m | 3.9m/s | 0°C | 0% | 0hPa | 0V | 00:00:00 | 00:00:00 | 00:00:00 | |
| DL9RDZ-1 | 2026-09-05 23:04:21 | 63.96942 | -22.62344 | 343° | 4km/h | 956m | 7.0m/s | 0°C | 0% | 0hPa | 0V | 00:00:00 | 00:00:00 | 00:00:00 | |
| DL9RDZ-1 | 2026-09-05 23:04:10 | 63.96920 | -22.62348 | 16° | 13km/h | 895m | 5.1m/s | 0°C | 0% | 0hPa | 0V | 00:00:00 | 00:00:00 | 00:00:00 | |
| DL9RDZ-1 | 2026-09-05 23:03:57 | 63.96889 | -22.62336 | 318° | 13km/h | 829m | 5.5m/s | 0°C | 0% | 0hPa | 0V | 00:00:00 | 00:00:00 | 00:00:00 | |
| DL9RDZ-1 | 2026-09-05 23:03:46 | 63.96873 | -22.62281 | 281° | 11km/h | 770m | 4.3m/s | 0°C | 0% | 0hPa | 0V | 00:00:00 | 00:00:00 | 00:00:00 | |
| DL9RDZ-1 | 2026-09-05 23:03:36 | 63.96856 | -22.62226 | 336° | 16km/h | 713m | 5.0m/s | 0°C | 0% | 0hPa | 0V | 00:00:00 | 00:00:00 | 00:00:00 |